Observation data for Palo Duro Canyon State Park Rim on 01/13/2021      Previous  Date  Next       Current Mesonet Observations  Soil Data  Daily Summary Page  Observations in Plain Language
KPD1 130600Z 25008KT 03/M04 A3015 RMK A01 T00261035  RH  064%=      5-min Rain = 0
KPD1 130601Z 25009KT 03/M04 A3015 RMK A01 T00271035  RH  064%=      5-min Rain = 0
KPD1 130602Z 25007KT 03/M04 A3015 RMK A01 T00281035  RH  063%=      5-min Rain = 0
KPD1 130603Z 25008G13KT 03/M04 A3015 RMK A01 T00281036  RH  063%=      5-min Rain = 0
KPD1 130604Z 25011KT 03/M04 A3015 RMK A01 T00281036  RH  063%=      5-min Rain = 0
KPD1 130605Z 25011KT 03/M04 A3015 RMK A01 T00281036  RH  063%=      5-min Rain = 0
KPD1 130606Z 25009KT 03/M04 A3015 RMK A01 T00291036  RH  062%=      5-min Rain = 0
KPD1 130607Z 26009G14KT 03/M04 A3015 RMK A01 T00291037  RH  062%=      5-min Rain = 0
KPD1 130608Z 25009KT 03/M04 A3015 RMK A01 T00281038  RH  062%=      5-min Rain = 0
KPD1 130609Z 26009KT 03/M04 A3015 RMK A01 T00271038  RH  062%=      5-min Rain = 0
KPD1 130610Z 26008KT 03/M04 A3015 RMK A01 T00261039  RH  063%=      5-min Rain = 0
KPD1 130611Z 26008KT 02/M04 A3015 RMK A01 T00241039  RH  063%=      5-min Rain = 0
KPD1 130612Z 26009KT 02/M04 A3015 RMK A01 T00231040  RH  063%=      5-min Rain = 0
KPD1 130613Z 26009KT 02/M04 A3015 RMK A01 T00221040  RH  064%=      5-min Rain = 0
KPD1 130614Z 26008KT 02/M04 A3015 RMK A01 T00201040  RH  064%=      5-min Rain = 0
KPD1 130615Z 26009KT 02/M04 A3015 RMK A01 T00191041  RH  065%=      5-min Rain = 0
KPD1 130616Z 26009KT 02/M04 A3015 RMK A01 T00181041  RH  065%=      5-min Rain = 0
KPD1 130617Z 26008KT 02/M04 A3015 RMK A01 T00171041  RH  065%=      5-min Rain = 0
KPD1 130618Z 26008KT 02/M04 A3015 RMK A01 T00151042  RH  066%=      5-min Rain = 0
KPD1 130619Z 26008KT 01/M04 A3015 RMK A01 T00141042  RH  066%=      5-min Rain = 0
KPD1 130620Z 26009KT 01/M04 A3015 RMK A01 T00131042  RH  066%=      5-min Rain = 0
KPD1 130621Z 26010KT 01/M04 A3015 RMK A01 T00131042  RH  067%=      5-min Rain = 0
KPD1 130622Z 26010KT 01/M04 A3015 RMK A01 T00131042  RH  067%=      5-min Rain = 0
KPD1 130623Z 26009KT 01/M04 A3015 RMK A01 T00121042  RH  067%=      5-min Rain = 0
KPD1 130624Z 26010KT 01/M04 A3015 RMK A01 T00101043  RH  067%=      5-min Rain = 0
KPD1 130625Z 27010KT 01/M04 A3015 RMK A01 T00081044  RH  068%=      5-min Rain = 0
KPD1 130626Z 26010KT 01/M04 A3015 RMK A01 T00081044  RH  068%=      5-min Rain = 0
KPD1 130627Z 26010KT 01/M04 A3014 RMK A01 T00071044  RH  068%=      5-min Rain = 0
KPD1 130628Z 26010KT 01/M04 A3014 RMK A01 T00071044  RH  069%=      5-min Rain = 0
KPD1 130629Z 26009KT 01/M05 A3014 RMK A01 T00061045  RH  069%=      5-min Rain = 0
KPD1 130630Z 26010KT 01/M05 A3014 RMK A01 T00051045  RH  069%=      5-min Rain = 0
KPD1 130631Z 26011KT 01/M05 A3014 RMK A01 T00051045  RH  069%=      5-min Rain = 0
KPD1 130632Z 27010KT 01/M05 A3014 RMK A01 T00051045  RH  069%=      5-min Rain = 0
KPD1 130633Z 26010KT 01/M05 A3014 RMK A01 T00051045  RH  069%=      5-min Rain = 0
KPD1 130634Z 27010KT 01/M05 A3014 RMK A01 T00051045  RH  069%=      5-min Rain = 0
KPD1 130635Z 27011KT 01/M05 A3014 RMK A01 T00051045  RH  069%=      5-min Rain = 0
KPD1 130636Z 27010KT 01/M05 A3014 RMK A01 T00051045  RH  069%=      5-min Rain = 0
KPD1 130637Z 27011KT 01/M05 A3014 RMK A01 T00051046  RH  069%=      5-min Rain = 0
KPD1 130638Z 27012KT 01/M05 A3014 RMK A01 T00051046  RH  069%=      5-min Rain = 0
KPD1 130639Z 27011KT 01/M05 A3014 RMK A01 T00061045  RH  069%=      5-min Rain = 0
KPD1 130640Z 27011KT 01/M05 A3014 RMK A01 T00061045  RH  068%=      5-min Rain = 0
KPD1 130641Z 27011KT 01/M05 A3014 RMK A01 T00061046  RH  068%=      5-min Rain = 0
KPD1 130642Z 27011KT 01/M05 A3014 RMK A01 T00061046  RH  068%=      5-min Rain = 0
KPD1 130643Z 27011KT 01/M05 A3014 RMK A01 T00051046  RH  068%=      5-min Rain = 0
KPD1 130644Z 27012KT 01/M05 A3014 RMK A01 T00051046  RH  068%=      5-min Rain = 0
KPD1 130645Z 27010KT 01/M05 A3014 RMK A01 T00051046  RH  068%=      5-min Rain = 0
KPD1 130646Z 27010KT 01/M05 A3014 RMK A01 T00051046  RH  068%=      5-min Rain = 0
KPD1 130647Z 27011KT 01/M05 A3014 RMK A01 T00051047  RH  068%=      5-min Rain = 0
KPD1 130648Z 27011KT 01/M05 A3014 RMK A01 T00061046  RH  068%=      5-min Rain = 0
KPD1 130649Z 27011KT 01/M05 A3014 RMK A01 T00081046  RH  068%=      5-min Rain = 0
KPD1 130650Z 27012KT 01/M05 A3014 RMK A01 T00081046  RH  067%=      5-min Rain = 0
KPD1 130651Z 27009KT 01/M05 A3014 RMK A01 T00081046  RH  067%=      5-min Rain = 0
KPD1 130652Z 27010KT 01/M05 A3014 RMK A01 T00081046  RH  067%=      5-min Rain = 0
KPD1 130653Z 27010KT 01/M05 A3014 RMK A01 T00081047  RH  067%=      5-min Rain = 0
KPD1 130654Z 27011KT 01/M05 A3014 RMK A01 T00071047  RH  067%=      5-min Rain = 0
KPD1 130655Z 27012KT 01/M05 A3014 RMK A01 T00061047  RH  067%=      5-min Rain = 0
KPD1 130656Z 27012KT 01/M05 A3015 RMK A01 T00061047  RH  068%=      5-min Rain = 0
KPD1 130657Z 27011KT 01/M05 A3014 RMK A01 T00051047  RH  068%=      5-min Rain = 0
KPD1 130658Z 27011KT 01/M05 A3014 RMK A01 T00051047  RH  068%=      5-min Rain = 0
KPD1 130659Z 27011KT 00/M05 A3015 RMK A01 T00041048  RH  068%=      5-min Rain = 0
KPD1 130700Z 28011KT 00/M05 A3015 RMK A01 T00031048  RH  069%=      5-min Rain = 0
KPD1 130701Z 28011KT 00/M05 A3015 RMK A01 T00021048  RH  069%=      5-min Rain = 0
KPD1 130702Z 27012KT 00/M05 A3015 RMK A01 T00011048  RH  069%=      5-min Rain = 0
KPD1 130703Z 28012KT 00/M05 A3015 RMK A01 T00011048  RH  070%=      5-min Rain = 0
KPD1 130704Z 27012KT 00/M05 A3015 RMK A01 T00011048  RH  070%=      5-min Rain = 0
KPD1 130705Z 28013KT 00/M05 A3015 RMK A01 T00021048  RH  070%=      5-min Rain = 0
KPD1 130706Z 27012KT 00/M05 A3015 RMK A01 T00021047  RH  070%=      5-min Rain = 0
KPD1 130707Z 27012KT 00/M05 A3015 RMK A01 T00031046  RH  070%=      5-min Rain = 0
KPD1 130708Z 27012KT 00/M05 A3015 RMK A01 T00031047  RH  069%=      5-min Rain = 0
KPD1 130709Z 28013KT 00/M05 A3015 RMK A01 T00031047  RH  069%=      5-min Rain = 0
KPD1 130710Z 28012KT 00/M05 A3015 RMK A01 T00031047  RH  069%=      5-min Rain = 0
KPD1 130711Z 28012KT 00/M05 A3015 RMK A01 T00031047  RH  069%=      5-min Rain = 0
KPD1 130712Z 28012KT 00/M05 A3015 RMK A01 T00031047  RH  069%=      5-min Rain = 0
KPD1 130713Z 28013KT 00/M05 A3015 RMK A01 T00021047  RH  070%=      5-min Rain = 0
KPD1 130714Z 28012KT 00/M05 A3015 RMK A01 T00011047  RH  070%=      5-min Rain = 0
KPD1 130715Z 28012KT 00/05 A3015 RMK A01 T00-00-48  RH  070%=      5-min Rain = 0
KPD1 130716Z 28012KT 00/05 A3015 RMK A01 T00-00-48  RH  071%=      5-min Rain = 0
KPD1 130717Z 28012KT M00/M05 A3015 RMK A01 T10011048  RH  071%=      5-min Rain = 0
KPD1 130718Z 28012KT M00/M05 A3015 RMK A01 T10021048  RH  071%=      5-min Rain = 0
KPD1 130719Z 28012KT M00/M05 A3015 RMK A01 T10021048  RH  071%=      5-min Rain = 0
KPD1 130720Z 28012KT M00/M05 A3015 RMK A01 T10021048  RH  071%=      5-min Rain = 0
KPD1 130721Z 28012KT M00/M05 A3015 RMK A01 T10021047  RH  072%=      5-min Rain = 0
KPD1 130722Z 28014KT M00/M05 A3015 RMK A01 T10021047  RH  072%=      5-min Rain = 0
KPD1 130723Z 28012G17KT M00/M05 A3015 RMK A01 T10021047  RH  072%=      5-min Rain = 0
KPD1 130724Z 28013KT M00/M05 A3015 RMK A01 T10011045  RH  072%=      5-min Rain = 0
KPD1 130725Z 28013KT 00/05 A3015 RMK A01 T00000-45  RH  072%=      5-min Rain = 0
KPD1 130726Z 28012KT 00/M04 A3015 RMK A01 T00011044  RH  071%=      5-min Rain = 0
KPD1 130727Z 28013KT 00/M04 A3015 RMK A01 T00021044  RH  071%=      5-min Rain = 0
KPD1 130728Z 27010KT 00/M04 A3015 RMK A01 T00031044  RH  071%=      5-min Rain = 0
KPD1 130729Z 28012KT 00/M04 A3015 RMK A01 T00031044  RH  071%=      5-min Rain = 0
KPD1 130730Z 28011KT 00/M04 A3015 RMK A01 T00031044  RH  071%=      5-min Rain = 0
KPD1 130731Z 28012KT 00/M05 A3015 RMK A01 T00031045  RH  071%=      5-min Rain = 0
KPD1 130732Z 28012KT 00/M05 A3015 RMK A01 T00021045  RH  071%=      5-min Rain = 0
KPD1 130733Z 27010KT 00/M05 A3015 RMK A01 T00011045  RH  071%=      5-min Rain = 0
KPD1 130734Z 28010KT 00/05 A3015 RMK A01 T00000-46  RH  071%=      5-min Rain = 0
KPD1 130735Z 28010KT 00/05 A3015 RMK A01 T00-00-46  RH  071%=      5-min Rain = 0
KPD1 130736Z 28010KT M00/M05 A3015 RMK A01 T10021047  RH  072%=      5-min Rain = 0
KPD1 130737Z 27010KT M00/M05 A3014 RMK A01 T10021047  RH  072%=      5-min Rain = 0
KPD1 130738Z 28009KT M00/M05 A3014 RMK A01 T10031047  RH  072%=      5-min Rain = 0
KPD1 130739Z 27010KT M00/M05 A3015 RMK A01 T10041047  RH  072%=      5-min Rain = 0
KPD1 130740Z 28010KT M00/M05 A3015 RMK A01 T10041048  RH  073%=      5-min Rain = 0
KPD1 130741Z 27010KT M01/M05 A3015 RMK A01 T10051048  RH  073%=      5-min Rain = 0
KPD1 130742Z 28010KT M01/M05 A3015 RMK A01 T10051048  RH  073%=      5-min Rain = 0
KPD1 130743Z 28009KT M01/M05 A3015 RMK A01 T10051047  RH  073%=      5-min Rain = 0
KPD1 130744Z 28010KT M01/M05 A3015 RMK A01 T10051047  RH  073%=      5-min Rain = 0
KPD1 130745Z 28010KT M01/M05 A3015 RMK A01 T10051047  RH  073%=      5-min Rain = 0
KPD1 130746Z 27011KT M01/M05 A3015 RMK A01 T10051047  RH  073%=      5-min Rain = 0
KPD1 130747Z 28010KT M01/M05 A3014 RMK A01 T10051047  RH  073%=      5-min Rain = 0
KPD1 130748Z 28010KT M01/M05 A3014 RMK A01 T10051048  RH  073%=      5-min Rain = 0
KPD1 130749Z 28009KT M01/M05 A3014 RMK A01 T10061049  RH  073%=      5-min Rain = 0
KPD1 130750Z 28010KT M01/M05 A3014 RMK A01 T10061048  RH  073%=      5-min Rain = 0
KPD1 130751Z 28009KT M01/M05 A3014 RMK A01 T10071049  RH  073%=      5-min Rain = 0
KPD1 130752Z 28011KT M01/M05 A3014 RMK A01 T10081049  RH  073%=      5-min Rain = 0
KPD1 130753Z 27009KT M01/M05 A3014 RMK A01 T10081049  RH  073%=      5-min Rain = 0
KPD1 130754Z 27009G14KT M01/M05 A3014 RMK A01 T10081049  RH  073%=      5-min Rain = 0
KPD1 130755Z 27010KT M01/M05 A3014 RMK A01 T10081049  RH  074%=      5-min Rain = 0
KPD1 130756Z 27011KT M01/M05 A3014 RMK A01 T10081049  RH  074%=      5-min Rain = 0
KPD1 130757Z 28011KT M01/M05 A3014 RMK A01 T10081049  RH  074%=      5-min Rain = 0
KPD1 130758Z 27009KT M01/M05 A3014 RMK A01 T10071049  RH  073%=      5-min Rain = 0
KPD1 130759Z 27011KT M01/M05 A3014 RMK A01 T10071049  RH  073%=      5-min Rain = 0
KPD1 130800Z 27011KT M01/M05 A3014 RMK A01 T10071049  RH  073%=      5-min Rain = 0
KPD1 130801Z 27010KT M01/M05 A3014 RMK A01 T10071049  RH  073%=      5-min Rain = 0
KPD1 130802Z 27009KT M01/M05 A3014 RMK A01 T10071050  RH  073%=      5-min Rain = 0
KPD1 130803Z 28011KT M01/M05 A3014 RMK A01 T10071050  RH  073%=      5-min Rain = 0
KPD1 130804Z 28010KT M01/M05 A3014 RMK A01 T10071050  RH  073%=      5-min Rain = 0
KPD1 130805Z 27009KT M01/M05 A3014 RMK A01 T10061050  RH  072%=      5-min Rain = 0
KPD1 130806Z 27011G17KT M01/M05 A3014 RMK A01 T10061050  RH  072%=      5-min Rain = 0
KPD1 130807Z 27010G15KT M01/M05 A3014 RMK A01 T10061050  RH  072%=      5-min Rain = 0
KPD1 130808Z 27011KT M01/M05 A3014 RMK A01 T10051049  RH  072%=      5-min Rain = 0
KPD1 130809Z 26010KT M00/M05 A3014 RMK A01 T10041048  RH  072%=      5-min Rain = 0
KPD1 130810Z 27011G16KT M00/M05 A3014 RMK A01 T10031049  RH  071%=      5-min Rain = 0
KPD1 130811Z 28010KT M00/M05 A3014 RMK A01 T10031049  RH  071%=      5-min Rain = 0
KPD1 130812Z 28012G17KT M00/M05 A3014 RMK A01 T10021049  RH  071%=      5-min Rain = 0
KPD1 130813Z 28012KT M00/M05 A3014 RMK A01 T10021049  RH  070%=      5-min Rain = 0
KPD1 130814Z 27013KT M00/M05 A3014 RMK A01 T10011049  RH  070%=      5-min Rain = 0
KPD1 130815Z 28010KT 00/05 A3014 RMK A01 T00-00-49  RH  070%=      5-min Rain = 0
KPD1 130816Z 28012KT 00/05 A3014 RMK A01 T00000-49  RH  069%=      5-min Rain = 0
KPD1 130817Z 28012KT 00/05 A3014 RMK A01 T00000-50  RH  069%=      5-min Rain = 0
KPD1 130818Z 28010KT 00/05 A3014 RMK A01 T00000-50  RH  069%=      5-min Rain = 0
KPD1 130819Z 28012KT 00/05 A3014 RMK A01 T00000-50  RH  069%=      5-min Rain = 0
KPD1 130820Z 28010KT 00/05 A3014 RMK A01 T00000-50  RH  069%=      5-min Rain = 0
KPD1 130821Z 28010KT 00/05 A3014 RMK A01 T00-00-50  RH  069%=      5-min Rain = 0
KPD1 130822Z 28011KT 00/05 A3014 RMK A01 T00-00-50  RH  069%=      5-min Rain = 0
KPD1 130823Z 29012KT 00/05 A3014 RMK A01 T00-00-50  RH  069%=      5-min Rain = 0
KPD1 130824Z 28011KT M00/M05 A3014 RMK A01 T10011050  RH  069%=      5-min Rain = 0
KPD1 130825Z 29010KT M00/M05 A3014 RMK A01 T10011050  RH  069%=      5-min Rain = 0
KPD1 130826Z 28011KT M00/M05 A3014 RMK A01 T10021051  RH  070%=      5-min Rain = 0
KPD1 130827Z 28011KT M00/M05 A3014 RMK A01 T10021051  RH  070%=      5-min Rain = 0
KPD1 130828Z 28012KT M00/M05 A3014 RMK A01 T10021051  RH  070%=      5-min Rain = 0
KPD1 130829Z 28009KT M00/M05 A3014 RMK A01 T10031051  RH  070%=      5-min Rain = 0
KPD1 130830Z 28010KT M00/M05 A3014 RMK A01 T10021051  RH  070%=      5-min Rain = 0
KPD1 130831Z 28012KT M00/M05 A3013 RMK A01 T10021051  RH  070%=      5-min Rain = 0
KPD1 130832Z 28009KT M00/M05 A3013 RMK A01 T10031051  RH  070%=      5-min Rain = 0
KPD1 130833Z 28011KT M00/M05 A3013 RMK A01 T10031051  RH  070%=      5-min Rain = 0
KPD1 130834Z 28011KT M00/M05 A3013 RMK A01 T10031051  RH  070%=      5-min Rain = 0
KPD1 130835Z 28011KT M00/M05 A3013 RMK A01 T10031051  RH  070%=      5-min Rain = 0
KPD1 130836Z 28011KT M00/M05 A3013 RMK A01 T10031051  RH  070%=      5-min Rain = 0
KPD1 130837Z 28012KT M00/M05 A3013 RMK A01 T10021051  RH  070%=      5-min Rain = 0
KPD1 130838Z 28010KT M00/M05 A3013 RMK A01 T10031051  RH  070%=      5-min Rain = 0
KPD1 130839Z 28012KT M00/M05 A3013 RMK A01 T10031052  RH  070%=      5-min Rain = 0
KPD1 130840Z 27010KT M00/M05 A3013 RMK A01 T10031052  RH  070%=      5-min Rain = 0
KPD1 130841Z 28012G17KT M00/M05 A3013 RMK A01 T10031052  RH  070%=      5-min Rain = 0
KPD1 130842Z 28010G15KT M00/M05 A3013 RMK A01 T10031052  RH  070%=      5-min Rain = 0
KPD1 130843Z 28010KT M00/M05 A3013 RMK A01 T10031052  RH  070%=      5-min Rain = 0
KPD1 130844Z 28010KT M00/M05 A3013 RMK A01 T10031052  RH  069%=      5-min Rain = 0
KPD1 130845Z 27010KT M00/M05 A3013 RMK A01 T10031052  RH  069%=      5-min Rain = 0
KPD1 130846Z 27010KT M00/M05 A3012 RMK A01 T10031052  RH  069%=      5-min Rain = 0
KPD1 130847Z 27010KT M00/M05 A3012 RMK A01 T10021052  RH  069%=      5-min Rain = 0
KPD1 130848Z 28011KT M00/M05 A3012 RMK A01 T10021052  RH  069%=      5-min Rain = 0
KPD1 130849Z 28010KT M00/M05 A3012 RMK A01 T10021052  RH  069%=      5-min Rain = 0
KPD1 130850Z 28009KT M00/M05 A3012 RMK A01 T10011052  RH  069%=      5-min Rain = 0
KPD1 130851Z 28011KT M00/M05 A3012 RMK A01 T10021052  RH  069%=      5-min Rain = 0
KPD1 130852Z 27010KT M00/M05 A3012 RMK A01 T10021052  RH  069%=      5-min Rain = 0
KPD1 130853Z 28010KT M00/M05 A3012 RMK A01 T10021053  RH  069%=      5-min Rain = 0
KPD1 130854Z 27010KT M00/M05 A3012 RMK A01 T10031054  RH  069%=      5-min Rain = 0
KPD1 130855Z 28009KT M00/M05 A3012 RMK A01 T10041054  RH  069%=      5-min Rain = 0
KPD1 130856Z 28010KT M00/M05 A3012 RMK A01 T10041054  RH  069%=      5-min Rain = 0
KPD1 130857Z 28010KT M01/M05 A3012 RMK A01 T10051054  RH  069%=      5-min Rain = 0
KPD1 130858Z 28008KT M01/M05 A3012 RMK A01 T10051054  RH  069%=      5-min Rain = 0
KPD1 130859Z 27009KT M01/M05 A3012 RMK A01 T10061054  RH  070%=      5-min Rain = 0
KPD1 130900Z 27009KT M01/M06 A3012 RMK A01 T10061055  RH  070%=      5-min Rain = 0
KPD1 130901Z 27010KT M01/M06 A3012 RMK A01 T10071055  RH  070%=      5-min Rain = 0
KPD1 130902Z 27007KT M01/M06 A3012 RMK A01 T10071055  RH  070%=      5-min Rain = 0
KPD1 130903Z 28008KT M01/M06 A3012 RMK A01 T10081056  RH  070%=      5-min Rain = 0
KPD1 130904Z 28007KT M01/M06 A3012 RMK A01 T10081055  RH  070%=      5-min Rain = 0
KPD1 130905Z 27010KT M01/M06 A3012 RMK A01 T10091056  RH  070%=      5-min Rain = 0
KPD1 130906Z 27008KT M01/M06 A3011 RMK A01 T10101056  RH  071%=      5-min Rain = 0
KPD1 130907Z 27009KT M01/M06 A3011 RMK A01 T10101056  RH  071%=      5-min Rain = 0
KPD1 130908Z 27008G13KT M01/M06 A3011 RMK A01 T10101056  RH  071%=      5-min Rain = 0
KPD1 130909Z 27010KT M01/M06 A3011 RMK A01 T10101056  RH  071%=      5-min Rain = 0
KPD1 130910Z 28009KT M01/M06 A3011 RMK A01 T10101056  RH  071%=      5-min Rain = 0
KPD1 130911Z 28009KT M01/M06 A3011 RMK A01 T10111056  RH  071%=      5-min Rain = 0
KPD1 130912Z 28010KT M01/M06 A3011 RMK A01 T10111057  RH  071%=      5-min Rain = 0
KPD1 130913Z 28009KT M01/M06 A3011 RMK A01 T10101056  RH  071%=      5-min Rain = 0
KPD1 130914Z 28008KT M01/M06 A3011 RMK A01 T10101056  RH  071%=      5-min Rain = 0
KPD1 130915Z 28010KT M01/M06 A3011 RMK A01 T10101057  RH  071%=      5-min Rain = 0
KPD1 130916Z 28009KT M01/M06 A3011 RMK A01 T10101056  RH  071%=      5-min Rain = 0
KPD1 130917Z 29008KT M01/M06 A3011 RMK A01 T10101057  RH  071%=      5-min Rain = 0
KPD1 130918Z 28008KT M01/M06 A3011 RMK A01 T10101057  RH  071%=      5-min Rain = 0
KPD1 130919Z 28007KT M01/M06 A3011 RMK A01 T10111057  RH  071%=      5-min Rain = 0
KPD1 130920Z 28008KT M01/M06 A301 RMK A01 T10111057  RH  071%=      5-min Rain = 0
KPD1 130921Z 28006KT M01/M06 A301 RMK A01 T10111057  RH  071%=      5-min Rain = 0
KPD1 130922Z 27006KT M01/M06 A301 RMK A01 T10111057  RH  071%=      5-min Rain = 0
KPD1 130923Z 26007KT M01/M06 A301 RMK A01 T10111057  RH  071%=      5-min Rain = 0
KPD1 130924Z 27006KT M01/M06 A301 RMK A01 T10111057  RH  071%=      5-min Rain = 0
KPD1 130925Z 27007KT M01/M06 A301 RMK A01 T10111057  RH  071%=      5-min Rain = 0
KPD1 130926Z 27007G12KT M01/M06 A301 RMK A01 T10111057  RH  071%=      5-min Rain = 0
KPD1 130927Z 27007KT M01/M06 A301 RMK A01 T10111057  RH  071%=      5-min Rain = 0
KPD1 130928Z 27007KT M01/M06 A301 RMK A01 T10111057  RH  071%=      5-min Rain = 0
KPD1 130929Z 27006KT M01/M06 A301 RMK A01 T10111057  RH  071%=      5-min Rain = 0
KPD1 130930Z 27008KT M01/M06 A301 RMK A01 T10111057  RH  071%=      5-min Rain = 0
KPD1 130931Z 27008KT M01/M06 A301 RMK A01 T10111057  RH  071%=      5-min Rain = 0
KPD1 130932Z 27007KT M01/M06 A301 RMK A01 T10111057  RH  071%=      5-min Rain = 0
KPD1 130933Z 26008KT M01/M06 A301 RMK A01 T10111057  RH  071%=      5-min Rain = 0
KPD1 130934Z 25006KT M01/M06 A301 RMK A01 T10111057  RH  071%=      5-min Rain = 0
KPD1 130935Z 26008KT M01/M06 A301 RMK A01 T10111057  RH  071%=      5-min Rain = 0
KPD1 130936Z 26007KT M01/M06 A301 RMK A01 T10111057  RH  071%=      5-min Rain = 0
KPD1 130937Z 26008KT M01/M06 A3009 RMK A01 T10111057  RH  071%=      5-min Rain = 0
KPD1 130938Z 26008KT M01/M06 A3009 RMK A01 T10111057  RH  071%=      5-min Rain = 0
KPD1 130939Z 27006KT M01/M06 A3009 RMK A01 T10121057  RH  071%=      5-min Rain = 0
KPD1 130940Z 26007KT M01/M06 A3009 RMK A01 T10111057  RH  071%=      5-min Rain = 0
KPD1 130941Z 26007KT M01/M06 A3009 RMK A01 T10111057  RH  071%=      5-min Rain = 0
KPD1 130942Z 27007KT M01/M06 A3009 RMK A01 T10111057  RH  071%=      5-min Rain = 0
KPD1 130943Z 26007KT M01/M06 A3009 RMK A01 T10111057  RH  071%=      5-min Rain = 0
KPD1 130944Z 27007KT M01/M06 A3009 RMK A01 T10111057  RH  071%=      5-min Rain = 0
KPD1 130945Z 27007KT M01/M06 A3009 RMK A01 T10111057  RH  071%=      5-min Rain = 0
KPD1 130946Z 27006KT M01/M06 A3009 RMK A01 T10121057  RH  071%=      5-min Rain = 0
KPD1 130947Z 27007KT M01/M06 A3009 RMK A01 T10121057  RH  071%=      5-min Rain = 0
KPD1 130948Z 27006KT M01/M06 A3009 RMK A01 T10121058  RH  071%=      5-min Rain = 0
KPD1 130949Z 27007KT M01/M06 A3009 RMK A01 T10121058  RH  071%=      5-min Rain = 0
KPD1 130950Z 27007KT M01/M06 A3009 RMK A01 T10121058  RH  071%=      5-min Rain = 0
KPD1 130951Z 27008KT M01/M06 A3009 RMK A01 T10131058  RH  071%=      5-min Rain = 0
KPD1 130952Z 27008KT M01/M06 A3009 RMK A01 T10131057  RH  072%=      5-min Rain = 0
KPD1 130953Z 28008KT M01/M06 A3009 RMK A01 T10131058  RH  071%=      5-min Rain = 0
KPD1 130954Z 27008KT M01/M06 A3009 RMK A01 T10131058  RH  071%=      5-min Rain = 0
KPD1 130955Z 28009KT M01/M06 A3009 RMK A01 T10131058  RH  072%=      5-min Rain = 0
KPD1 130956Z 28008KT M01/M06 A3009 RMK A01 T10131058  RH  072%=      5-min Rain = 0
KPD1 130957Z 28009KT M01/M06 A3009 RMK A01 T10121057  RH  071%=      5-min Rain = 0
KPD1 130958Z 28009KT M01/M06 A3009 RMK A01 T10121057  RH  071%=      5-min Rain = 0
KPD1 130959Z 28010KT M01/M06 A3009 RMK A01 T10121058  RH  071%=      5-min Rain = 0
KPD1 131000Z 28009KT M01/M06 A3008 RMK A01 T10121058  RH  071%=      5-min Rain = 0
KPD1 131001Z 28009KT M01/M06 A3008 RMK A01 T10121058  RH  071%=      5-min Rain = 0
KPD1 131002Z 28008KT M01/M06 A3008 RMK A01 T10121058  RH  071%=      5-min Rain = 0
KPD1 131003Z 28008KT M01/M06 A3008 RMK A01 T10131059  RH  071%=      5-min Rain = 0
KPD1 131004Z 28008KT M01/M06 A3008 RMK A01 T10141059  RH  071%=      5-min Rain = 0
KPD1 131005Z 28008KT M02/M06 A3008 RMK A01 T10151060  RH  072%=      5-min Rain = 0
KPD1 131006Z 28008KT M02/M06 A3008 RMK A01 T10161060  RH  072%=      5-min Rain = 0
KPD1 131007Z 29007KT M02/M06 A3008 RMK A01 T10161059  RH  072%=      5-min Rain = 0
KPD1 131008Z 29008KT M02/M06 A3008 RMK A01 T10171060  RH  072%=      5-min Rain = 0
KPD1 131009Z 29008KT M02/M06 A3008 RMK A01 T10171060  RH  072%=      5-min Rain = 0
KPD1 131010Z 29008KT M02/M06 A3008 RMK A01 T10181060  RH  073%=      5-min Rain = 0
KPD1 131011Z 29008KT M02/M06 A3008 RMK A01 T10181061  RH  073%=      5-min Rain = 0
KPD1 131012Z 28008KT M02/M06 A3008 RMK A01 T10191061  RH  073%=      5-min Rain = 0
KPD1 131013Z 28007KT M02/M06 A3008 RMK A01 T10211062  RH  073%=      5-min Rain = 0
KPD1 131014Z 29009KT M02/M06 A3008 RMK A01 T10211062  RH  074%=      5-min Rain = 0
KPD1 131015Z 29007KT M02/M06 A3008 RMK A01 T10221063  RH  074%=      5-min Rain = 0
KPD1 131016Z 29007KT M02/M06 A3008 RMK A01 T10241063  RH  074%=      5-min Rain = 0
KPD1 131017Z 30008KT M03/M06 A3008 RMK A01 T10251063  RH  075%=      5-min Rain = 0
KPD1 131018Z 30009KT M03/M06 A3008 RMK A01 T10251063  RH  075%=      5-min Rain = 0
KPD1 131019Z 29009KT M03/M06 A3008 RMK A01 T10261063  RH  075%=      5-min Rain = 0
KPD1 131020Z 30008KT M03/M06 A3008 RMK A01 T10261063  RH  076%=      5-min Rain = 0
KPD1 131021Z 29008KT M03/M06 A3008 RMK A01 T10261062  RH  076%=      5-min Rain = 0
KPD1 131022Z 29009KT M03/M06 A3008 RMK A01 T10261062  RH  076%=      5-min Rain = 0
KPD1 131023Z 29007KT M03/M06 A3008 RMK A01 T10261062  RH  076%=      5-min Rain = 0
KPD1 131024Z 28007KT M03/M06 A3008 RMK A01 T10261062  RH  076%=      5-min Rain = 0
KPD1 131025Z 28008KT M03/M06 A3008 RMK A01 T10261062  RH  076%=      5-min Rain = 0
KPD1 131026Z 28008KT M03/M06 A3008 RMK A01 T10261062  RH  076%=      5-min Rain = 0
KPD1 131027Z 28007KT M03/M06 A3008 RMK A01 T10251061  RH  076%=      5-min Rain = 0
KPD1 131028Z 28006KT M03/M06 A3007 RMK A01 T10251061  RH  076%=      5-min Rain = 0
KPD1 131029Z 28007KT M03/M06 A3008 RMK A01 T10251061  RH  076%=      5-min Rain = 0
KPD1 131030Z 28007KT M03/M06 A3008 RMK A01 T10261062  RH  076%=      5-min Rain = 0
KPD1 131031Z 29007KT M03/M06 A3008 RMK A01 T10261062  RH  076%=      5-min Rain = 0
KPD1 131032Z 28006KT M03/M06 A3008 RMK A01 T10261062  RH  076%=      5-min Rain = 0
KPD1 131033Z 29007KT M03/M06 A3008 RMK A01 T10271063  RH  076%=      5-min Rain = 0
KPD1 131034Z 29006KT M03/M06 A3008 RMK A01 T10271063  RH  076%=      5-min Rain = 0
KPD1 131035Z 29007KT M03/M06 A3008 RMK A01 T10271063  RH  076%=      5-min Rain = 0
KPD1 131036Z 29006KT M03/M06 A3008 RMK A01 T10281063  RH  077%=      5-min Rain = 0
KPD1 131037Z 29005KT M03/M06 A3008 RMK A01 T10291064  RH  077%=      5-min Rain = 0
KPD1 131038Z 29006KT M03/M06 A3008 RMK A01 T10301064  RH  077%=      5-min Rain = 0
KPD1 131039Z 28006KT M03/M06 A3007 RMK A01 T10301064  RH  077%=      5-min Rain = 0
KPD1 131040Z 28007KT M03/M06 A3007 RMK A01 T10311064  RH  077%=      5-min Rain = 0
KPD1 131041Z 28007KT M03/M06 A3007 RMK A01 T10311064  RH  078%=      5-min Rain = 0
KPD1 131042Z 27008KT M03/M07 A3007 RMK A01 T10311065  RH  078%=      5-min Rain = 0
KPD1 131043Z 28006KT M03/M06 A3007 RMK A01 T10311064  RH  078%=      5-min Rain = 0
KPD1 131044Z 28007KT M03/M06 A3007 RMK A01 T10311064  RH  078%=      5-min Rain = 0
KPD1 131045Z 28006KT M03/M06 A3007 RMK A01 T10311064  RH  078%=      5-min Rain = 0
KPD1 131046Z 28006KT M03/M06 A3007 RMK A01 T10311064  RH  078%=      5-min Rain = 0
KPD1 131047Z 28006KT M03/M06 A3007 RMK A01 T10311064  RH  078%=      5-min Rain = 0
KPD1 131048Z 28007KT M03/M06 A3007 RMK A01 T10311064  RH  078%=      5-min Rain = 0
KPD1 131049Z 29005KT M03/M06 A3006 RMK A01 T10311064  RH  078%=      5-min Rain = 0
KPD1 131050Z 29005KT M03/M06 A3006 RMK A01 T10311064  RH  078%=      5-min Rain = 0
KPD1 131051Z 27006KT M03/M06 A3006 RMK A01 T10311064  RH  078%=      5-min Rain = 0
KPD1 131052Z 27004KT M03/M07 A3006 RMK A01 T10311065  RH  078%=      5-min Rain = 0
KPD1 131053Z 26005KT M03/M07 A3006 RMK A01 T10311065  RH  078%=      5-min Rain = 0
KPD1 131054Z 25004KT M03/M07 A3006 RMK A01 T10311065  RH  078%=      5-min Rain = 0
KPD1 131055Z 26005KT M03/M07 A3006 RMK A01 T10321066  RH  077%=      5-min Rain = 0
KPD1 131056Z 26005KT M03/M07 A3006 RMK A01 T10321066  RH  077%=      5-min Rain = 0
KPD1 131057Z 27007KT M03/M07 A3006 RMK A01 T10321066  RH  077%=      5-min Rain = 0
KPD1 131058Z 28006KT M03/M07 A3006 RMK A01 T10311065  RH  078%=      5-min Rain = 0
KPD1 131059Z 28006KT M03/M07 A3006 RMK A01 T10311065  RH  077%=      5-min Rain = 0
KPD1 131100Z 28006KT M03/M07 A3006 RMK A01 T10311065  RH  077%=      5-min Rain = 0
KPD1 131101Z 28006KT M03/M07 A3006 RMK A01 T10311065  RH  077%=      5-min Rain = 0
KPD1 131102Z 27007KT M03/M07 A3006 RMK A01 T10301065  RH  077%=      5-min Rain = 0
KPD1 131103Z 28006KT M03/M06 A3006 RMK A01 T10301064  RH  077%=      5-min Rain = 0
KPD1 131104Z 29005KT M03/M06 A3006 RMK A01 T10291064  RH  077%=      5-min Rain = 0
KPD1 131105Z 28005KT M03/M07 A3006 RMK A01 T10301065  RH  077%=      5-min Rain = 0
KPD1 131106Z 28006KT M03/M07 A3006 RMK A01 T10301065  RH  077%=      5-min Rain = 0
KPD1 131107Z 28006KT M03/M07 A3006 RMK A01 T10301065  RH  077%=      5-min Rain = 0
KPD1 131108Z 28006KT M03/M07 A3006 RMK A01 T10301065  RH  077%=      5-min Rain = 0
KPD1 131109Z 29005KT M03/M07 A3006 RMK A01 T10301065  RH  077%=      5-min Rain = 0
KPD1 131110Z 29006KT M03/M07 A3006 RMK A01 T10311066  RH  077%=      5-min Rain = 0
KPD1 131111Z 29004KT M03/M07 A3006 RMK A01 T10311066  RH  077%=      5-min Rain = 0
KPD1 131112Z 30005KT M03/M07 A3006 RMK A01 T10311066  RH  077%=      5-min Rain = 0
KPD1 131113Z 30005KT M03/M07 A3006 RMK A01 T10311066  RH  077%=      5-min Rain = 0
KPD1 131114Z 30004KT M03/M07 A3006 RMK A01 T10321066  RH  077%=      5-min Rain = 0
KPD1 131115Z 29004KT M03/M07 A3006 RMK A01 T10321066  RH  077%=      5-min Rain = 0
KPD1 131116Z 27003KT M03/M07 A3006 RMK A01 T10331067  RH  077%=      5-min Rain = 0
KPD1 131117Z 27005KT M03/M07 A3005 RMK A01 T10331067  RH  077%=      5-min Rain = 0
KPD1 131118Z 28005KT M03/M07 A3005 RMK A01 T10331067  RH  077%=      5-min Rain = 0
KPD1 131119Z 28005KT M03/M07 A3005 RMK A01 T10331067  RH  077%=      5-min Rain = 0
KPD1 131120Z 27005KT M03/M07 A3005 RMK A01 T10331067  RH  077%=      5-min Rain = 0
KPD1 131121Z 27004KT M03/M07 A3005 RMK A01 T10341068  RH  077%=      5-min Rain = 0
KPD1 131122Z 26005KT M03/M07 A3005 RMK A01 T10341068  RH  078%=      5-min Rain = 0
KPD1 131123Z 27004KT M04/M07 A3005 RMK A01 T10351068  RH  078%=      5-min Rain = 0
KPD1 131124Z 25005KT M04/M07 A3005 RMK A01 T10351068  RH  078%=      5-min Rain = 0
KPD1 131125Z 26005KT M04/M07 A3005 RMK A01 T10361068  RH  078%=      5-min Rain = 0
KPD1 131126Z 25005KT M04/M07 A3005 RMK A01 T10351068  RH  078%=      5-min Rain = 0
KPD1 131127Z 25005KT M04/M07 A3005 RMK A01 T10361068  RH  078%=      5-min Rain = 0
KPD1 131128Z 25004KT M04/M07 A3005 RMK A01 T10361068  RH  078%=      5-min Rain = 0
KPD1 131129Z 25005KT M04/M07 A3005 RMK A01 T10361069  RH  078%=      5-min Rain = 0
KPD1 131130Z 25004KT M04/M07 A3005 RMK A01 T10371069  RH  078%=      5-min Rain = 0
KPD1 131131Z 26004KT M04/M07 A3005 RMK A01 T10371069  RH  078%=      5-min Rain = 0
KPD1 131132Z 27004KT M04/M07 A3005 RMK A01 T10371069  RH  078%=      5-min Rain = 0
KPD1 131133Z 29004KT M04/M07 A3005 RMK A01 T10381069  RH  079%=      5-min Rain = 0
KPD1 131134Z 29004KT M04/M07 A3005 RMK A01 T10371069  RH  079%=      5-min Rain = 0
KPD1 131135Z 29005KT M04/M07 A3005 RMK A01 T10371069  RH  079%=      5-min Rain = 0
KPD1 131136Z 28004KT M04/M07 A3005 RMK A01 T10371068  RH  079%=      5-min Rain = 0
KPD1 131137Z 28004KT M04/M07 A3005 RMK A01 T10361068  RH  079%=      5-min Rain = 0
KPD1 131138Z 28004KT M04/M07 A3005 RMK A01 T10361068  RH  078%=      5-min Rain = 0
KPD1 131139Z 28004KT M04/M07 A3005 RMK A01 T10361068  RH  078%=      5-min Rain = 0
KPD1 131140Z 28004KT M04/M07 A3005 RMK A01 T10361069  RH  078%=      5-min Rain = 0
KPD1 131141Z 27004KT M04/M07 A3005 RMK A01 T10361069  RH  078%=      5-min Rain = 0
KPD1 131142Z 28002KT M04/M07 A3005 RMK A01 T10361069  RH  078%=      5-min Rain = 0
KPD1 131143Z 29003KT M04/M07 A3005 RMK A01 T10361070  RH  078%=      5-min Rain = 0
KPD1 131144Z 30004KT M04/M07 A3005 RMK A01 T10371070  RH  078%=      5-min Rain = 0
KPD1 131145Z 30004KT M04/M07 A3005 RMK A01 T10371069  RH  078%=      5-min Rain = 0
KPD1 131146Z 29004KT M04/M07 A3005 RMK A01 T10371070  RH  078%=      5-min Rain = 0
KPD1 131147Z 29003KT M04/M07 A3005 RMK A01 T10371070  RH  078%=      5-min Rain = 0
KPD1 131148Z 29002KT M04/M07 A3005 RMK A01 T10381071  RH  078%=      5-min Rain = 0
KPD1 131149Z 26003KT M04/M07 A3005 RMK A01 T10381071  RH  078%=      5-min Rain = 0
KPD1 131150Z 27004KT M04/M07 A3005 RMK A01 T10391071  RH  078%=      5-min Rain = 0
KPD1 131151Z 26003KT M04/M07 A3005 RMK A01 T10391071  RH  078%=      5-min Rain = 0
KPD1 131152Z 28003KT M04/M07 A3005 RMK A01 T10391071  RH  078%=      5-min Rain = 0
KPD1 131153Z 27004KT M04/M07 A3005 RMK A01 T10391071  RH  078%=      5-min Rain = 0
KPD1 131154Z 28002KT M04/M07 A3005 RMK A01 T10391071  RH  078%=      5-min Rain = 0
KPD1 131155Z 28002KT M04/M07 A3005 RMK A01 T10391071  RH  079%=      5-min Rain = 0
KPD1 131156Z 29002KT M04/M07 A3005 RMK A01 T10391071  RH  079%=      5-min Rain = 0
KPD1 131157Z 31003KT M04/M07 A3005 RMK A01 T10391071  RH  079%=      5-min Rain = 0
KPD1 131158Z 30004KT M04/M07 A3005 RMK A01 T10401071  RH  079%=      5-min Rain = 0
KPD1 131159Z 29004KT M04/M07 A3005 RMK A01 T10391070  RH  079%=      5-min Rain = 0
KPD1 131200Z 30005KT M04/M07 A3005 RMK A01 T10401071  RH  079%=      5-min Rain = 0
KPD1 131201Z 29005KT M04/M07 A3005 RMK A01 T10391070  RH  079%=      5-min Rain = 0
KPD1 131202Z 30004KT M04/M07 A3005 RMK A01 T10401071  RH  079%=      5-min Rain = 0
KPD1 131203Z 30005KT M04/M07 A3005 RMK A01 T10401071  RH  079%=      5-min Rain = 0
KPD1 131204Z 30005KT M04/M07 A3005 RMK A01 T10401071  RH  079%=      5-min Rain = 0
KPD1 131205Z 29006KT M04/M07 A3005 RMK A01 T10401070  RH  079%=      5-min Rain = 0
KPD1 131206Z 30005KT M04/M07 A3005 RMK A01 T10391070  RH  080%=      5-min Rain = 0
KPD1 131207Z 31005KT M04/M07 A3005 RMK A01 T10391070  RH  079%=      5-min Rain = 0
KPD1 131208Z 30006KT M04/M07 A3005 RMK A01 T10391069  RH  079%=      5-min Rain = 0
KPD1 131209Z 31007KT M04/M07 A3005 RMK A01 T10391069  RH  079%=      5-min Rain = 0
KPD1 131210Z 31007KT M04/M07 A3005 RMK A01 T10391069  RH  079%=      5-min Rain = 0
KPD1 131211Z 32005KT M04/M07 A3005 RMK A01 T10391069  RH  079%=      5-min Rain = 0
KPD1 131212Z 32006KT M04/M07 A3005 RMK A01 T10391069  RH  079%=      5-min Rain = 0
KPD1 131213Z 33006KT M04/M07 A3005 RMK A01 T10391069  RH  079%=      5-min Rain = 0
KPD1 131214Z 33005KT M04/M07 A3005 RMK A01 T10391069  RH  079%=      5-min Rain = 0
KPD1 131215Z 32005KT M04/M07 A3005 RMK A01 T10401070  RH  079%=      5-min Rain = 0
KPD1 131216Z 33004KT M04/M07 A3005 RMK A01 T10401070  RH  080%=      5-min Rain = 0
KPD1 131217Z 32005KT M04/M07 A3005 RMK A01 T10401070  RH  080%=      5-min Rain = 0
KPD1 131218Z 32008KT M04/M07 A3005 RMK A01 T10411071  RH  080%=      5-min Rain = 0
KPD1 131219Z 32007KT M04/M07 A3006 RMK A01 T10411071  RH  080%=      5-min Rain = 0
KPD1 131220Z 32007KT M04/M07 A3006 RMK A01 T10421071  RH  080%=      5-min Rain = 0
KPD1 131221Z 33006KT M04/M07 A3006 RMK A01 T10431072  RH  080%=      5-min Rain = 0
KPD1 131222Z 31005KT M04/M07 A3006 RMK A01 T10441073  RH  080%=      5-min Rain = 0
KPD1 131223Z 31008KT M05/M07 A3006 RMK A01 T10451074  RH  080%=      5-min Rain = 0
KPD1 131224Z 30008KT M05/M08 A3005 RMK A01 T10461075  RH  080%=      5-min Rain = 0
KPD1 131225Z 30009KT M05/M08 A3005 RMK A01 T10461075  RH  080%=      5-min Rain = 0
KPD1 131226Z 30008KT M05/M08 A3005 RMK A01 T10471075  RH  080%=      5-min Rain = 0
KPD1 131227Z 30008KT M05/M08 A3005 RMK A01 T10471075  RH  081%=      5-min Rain = 0
KPD1 131228Z 29008KT M05/M08 A3005 RMK A01 T10471075  RH  081%=      5-min Rain = 0
KPD1 131229Z 29007KT M05/M08 A3005 RMK A01 T10471075  RH  081%=      5-min Rain = 0
KPD1 131230Z 29008KT M05/M07 A3005 RMK A01 T10471074  RH  081%=      5-min Rain = 0
KPD1 131231Z 29008KT M05/M07 A3005 RMK A01 T10461074  RH  081%=      5-min Rain = 0
KPD1 131232Z 29006KT M05/M07 A3005 RMK A01 T10451073  RH  081%=      5-min Rain = 0
KPD1 131233Z 29005KT M04/M07 A3005 RMK A01 T10441072  RH  081%=      5-min Rain = 0
KPD1 131234Z 29006KT M04/M07 A3005 RMK A01 T10441073  RH  080%=      5-min Rain = 0
KPD1 131235Z 29006G11KT M04/M07 A3005 RMK A01 T10441074  RH  080%=      5-min Rain = 0
KPD1 131236Z 29008KT M04/M07 A3005 RMK A01 T10441074  RH  080%=      5-min Rain = 0
KPD1 131237Z 28008KT M04/M07 A3005 RMK A01 T10431073  RH  080%=      5-min Rain = 0
KPD1 131238Z 28009KT M04/M07 A3005 RMK A01 T10431073  RH  079%=      5-min Rain = 0
KPD1 131239Z 27008KT M04/M07 A3005 RMK A01 T10421073  RH  079%=      5-min Rain = 0
KPD1 131240Z 27007KT M04/M07 A3005 RMK A01 T10411072  RH  079%=      5-min Rain = 0
KPD1 131241Z 27009KT M04/M07 A3005 RMK A01 T10401072  RH  078%=      5-min Rain = 0
KPD1 131242Z 28008KT M04/M07 A3005 RMK A01 T10401073  RH  078%=      5-min Rain = 0
KPD1 131243Z 29006KT M04/M07 A3006 RMK A01 T10401073  RH  078%=      5-min Rain = 0
KPD1 131244Z 33005KT M04/M07 A3006 RMK A01 T10401073  RH  077%=      5-min Rain = 0
KPD1 131245Z 03005KT M04/M07 A3006 RMK A01 T10401074  RH  077%=      5-min Rain = 0
KPD1 131246Z 03002KT M04/M08 A3006 RMK A01 T10411075  RH  077%=      5-min Rain = 0
KPD1 131247Z 32003KT M04/M08 A3006 RMK A01 T10421075  RH  078%=      5-min Rain = 0
KPD1 131248Z 34004KT M04/M08 A3006 RMK A01 T10421075  RH  078%=      5-min Rain = 0
KPD1 131249Z 34003KT M04/M08 A3006 RMK A01 T10421075  RH  078%=      5-min Rain = 0
KPD1 131250Z 30004KT M04/M08 A3006 RMK A01 T10421075  RH  078%=      5-min Rain = 0
KPD1 131251Z 30006KT M04/M08 A3006 RMK A01 T10421075  RH  078%=      5-min Rain = 0
KPD1 131252Z 29007KT M04/M08 A3006 RMK A01 T10431075  RH  078%=      5-min Rain = 0
KPD1 131253Z 28008KT M04/M08 A3006 RMK A01 T10431076  RH  078%=      5-min Rain = 0
KPD1 131254Z 29009KT M04/M08 A3006 RMK A01 T10441077  RH  077%=      5-min Rain = 0
KPD1 131255Z 29008KT M05/M08 A3006 RMK A01 T10451078  RH  077%=      5-min Rain = 0
KPD1 131256Z 29007KT M05/M08 A3006 RMK A01 T10451078  RH  077%=      5-min Rain = 0
KPD1 131257Z 29008KT M05/M08 A3006 RMK A01 T10461079  RH  078%=      5-min Rain = 0
KPD1 131258Z 29008KT M05/M08 A3006 RMK A01 T10471080  RH  078%=      5-min Rain = 0
KPD1 131259Z 29006KT M05/M08 A3006 RMK A01 T10471080  RH  078%=      5-min Rain = 0
KPD1 131300Z 29007KT M05/M08 A3006 RMK A01 T10481080  RH  078%=      5-min Rain = 0
KPD1 131301Z 30007KT M05/M08 A3006 RMK A01 T10481080  RH  078%=      5-min Rain = 0
KPD1 131302Z 30007KT M05/M08 A3006 RMK A01 T10491081  RH  078%=      5-min Rain = 0
KPD1 131303Z 30007KT M05/M08 A3006 RMK A01 T10491081  RH  079%=      5-min Rain = 0
KPD1 131304Z 29005KT M05/M08 A3006 RMK A01 T10501081  RH  079%=      5-min Rain = 0
KPD1 131305Z 29006KT M05/M08 A3005 RMK A01 T10501081  RH  079%=      5-min Rain = 0
KPD1 131306Z 30006KT M05/M08 A3005 RMK A01 T10501081  RH  079%=      5-min Rain = 0
KPD1 131307Z 29007KT M05/M08 A3005 RMK A01 T10511082  RH  079%=      5-min Rain = 0
KPD1 131308Z 29007KT M05/M08 A3005 RMK A01 T10511082  RH  079%=      5-min Rain = 0
KPD1 131309Z 30005KT M05/M08 A3005 RMK A01 T10521082  RH  079%=      5-min Rain = 0
KPD1 131310Z 31004KT M05/M08 A3005 RMK A01 T10521082  RH  080%=      5-min Rain = 0
KPD1 131311Z 30005KT M05/M08 A3005 RMK A01 T10521082  RH  080%=      5-min Rain = 0
KPD1 131312Z 29005KT M05/M08 A3005 RMK A01 T10521082  RH  080%=      5-min Rain = 0
KPD1 131313Z 29004KT M05/M08 A3005 RMK A01 T10531082  RH  080%=      5-min Rain = 0
KPD1 131314Z 30004KT M05/M08 A3005 RMK A01 T10531083  RH  080%=      5-min Rain = 0
KPD1 131315Z 29005KT M05/M08 A3005 RMK A01 T10531082  RH  080%=      5-min Rain = 0
KPD1 131316Z 28005KT M05/M08 A3005 RMK A01 T10531082  RH  080%=      5-min Rain = 0
KPD1 131317Z 28004KT M05/M08 A3004 RMK A01 T10531082  RH  080%=      5-min Rain = 0
KPD1 131318Z 29004KT M05/M08 A3004 RMK A01 T10531082  RH  080%=      5-min Rain = 0
KPD1 131319Z 29005KT M05/M08 A3004 RMK A01 T10531082  RH  080%=      5-min Rain = 0
KPD1 131320Z 28004KT M05/M08 A3004 RMK A01 T10531081  RH  081%=      5-min Rain = 0
KPD1 131321Z 26005KT M05/M08 A3004 RMK A01 T10531081  RH  081%=      5-min Rain = 0
KPD1 131322Z 26003KT M05/M08 A3004 RMK A01 T10531081  RH  081%=      5-min Rain = 0
KPD1 131323Z 25003KT M05/M08 A3004 RMK A01 T10531081  RH  081%=      5-min Rain = 0
KPD1 131324Z 24003KT M05/M08 A3004 RMK A01 T10531081  RH  081%=      5-min Rain = 0
KPD1 131325Z 23002KT M05/M08 A3003 RMK A01 T10531080  RH  081%=      5-min Rain = 0
KPD1 131326Z 26002KT M05/M08 A3004 RMK A01 T10521080  RH  081%=      5-min Rain = 0
KPD1 131327Z 29002KT M05/M08 A3004 RMK A01 T10521080  RH  081%=      5-min Rain = 0
KPD1 131328Z 27002KT M05/M08 A3004 RMK A01 T10511079  RH  081%=      5-min Rain = 0
KPD1 131329Z 26003KT M05/M08 A3003 RMK A01 T10511079  RH  081%=      5-min Rain = 0
KPD1 131330Z 25003KT M05/M08 A3003 RMK A01 T10511079  RH  081%=      5-min Rain = 0
KPD1 131331Z 25005KT M05/M08 A3003 RMK A01 T10511079  RH  081%=      5-min Rain = 0
KPD1 131332Z 25006KT M05/M08 A3003 RMK A01 T10511079  RH  081%=      5-min Rain = 0
KPD1 131333Z 25005KT M05/M08 A3003 RMK A01 T10511079  RH  081%=      5-min Rain = 0
KPD1 131334Z 25006KT M05/M08 A3003 RMK A01 T10511079  RH  081%=      5-min Rain = 0
KPD1 131335Z 25005KT M05/M08 A3003 RMK A01 T10511079  RH  081%=      5-min Rain = 0
KPD1 131336Z 25005KT M05/M08 A3003 RMK A01 T10511079  RH  081%=      5-min Rain = 0
KPD1 131337Z 24004KT M05/M08 A3003 RMK A01 T10511079  RH  081%=      5-min Rain = 0
KPD1 131338Z 25004KT M05/M08 A3003 RMK A01 T10511079  RH  081%=      5-min Rain = 0
KPD1 131339Z 24004KT M05/M08 A3003 RMK A01 T10501079  RH  081%=      5-min Rain = 0
KPD1 131340Z 25005KT M05/M08 A3003 RMK A01 T10501078  RH  081%=      5-min Rain = 0
KPD1 131341Z 25005KT M05/M08 A3003 RMK A01 T10501079  RH  080%=      5-min Rain = 0
KPD1 131342Z 25005KT M05/M08 A3003 RMK A01 T10501079  RH  080%=      5-min Rain = 0
KPD1 131343Z 25005KT M05/M08 A3003 RMK A01 T10501078  RH  080%=      5-min Rain = 0
KPD1 131344Z 25005KT M05/M08 A3003 RMK A01 T10491078  RH  080%=      5-min Rain = 0
KPD1 131345Z 25004KT M05/M08 A3003 RMK A01 T10501079  RH  080%=      5-min Rain = 0
KPD1 131346Z 25003KT M05/M08 A3003 RMK A01 T10511080  RH  080%=      5-min Rain = 0
KPD1 131347Z 26003KT M05/M08 A3003 RMK A01 T10511080  RH  080%=      5-min Rain = 0
KPD1 131348Z 26003KT M05/M08 A3003 RMK A01 T10521081  RH  080%=      5-min Rain = 0
KPD1 131349Z 26004KT M05/M08 A3003 RMK A01 T10521081  RH  080%=      5-min Rain = 0
KPD1 131350Z 26003KT M05/M08 A3003 RMK A01 T10521081  RH  080%=      5-min Rain = 0
KPD1 131351Z 26004KT M05/M08 A3003 RMK A01 T10531081  RH  081%=      5-min Rain = 0
KPD1 131352Z 26003KT M05/M08 A3003 RMK A01 T10531081  RH  081%=      5-min Rain = 0
KPD1 131353Z 27003KT M05/M08 A3003 RMK A01 T10531081  RH  081%=      5-min Rain = 0
KPD1 131354Z 29002KT M05/M08 A3003 RMK A01 T10531080  RH  081%=      5-min Rain = 0
KPD1 131355Z 30002KT M05/M08 A3003 RMK A01 T10531079  RH  082%=      5-min Rain = 0
KPD1 131356Z 29003KT M05/M08 A3003 RMK A01 T10521078  RH  082%=      5-min Rain = 0
KPD1 131357Z 28005KT M05/M08 A3003 RMK A01 T10511077  RH  082%=      5-min Rain = 0
KPD1 131358Z 27005KT M05/M08 A3003 RMK A01 T10511077  RH  082%=      5-min Rain = 0
KPD1 131359Z 27005KT M05/M08 A3003 RMK A01 T10501077  RH  082%=      5-min Rain = 0
KPD1 131400Z 27005KT M05/M08 A3003 RMK A01 T10501077  RH  081%=      5-min Rain = 0
KPD1 131401Z 27005KT M05/M08 A3003 RMK A01 T10491076  RH  081%=      5-min Rain = 0
KPD1 131402Z 26004KT M05/M08 A3003 RMK A01 T10491077  RH  081%=      5-min Rain = 0
KPD1 131403Z 26003KT M05/M08 A3003 RMK A01 T10491077  RH  080%=      5-min Rain = 0
KPD1 131404Z 26003KT M05/M08 A3002 RMK A01 T10491077  RH  080%=      5-min Rain = 0
KPD1 131405Z 25004KT M05/M08 A3002 RMK A01 T10491077  RH  080%=      5-min Rain = 0
KPD1 131406Z 25004KT M05/M08 A3002 RMK A01 T10481077  RH  080%=      5-min Rain = 0
KPD1 131407Z 25004KT M05/M08 A3002 RMK A01 T10481077  RH  080%=      5-min Rain = 0
KPD1 131408Z 25004KT M05/M08 A3002 RMK A01 T10481078  RH  080%=      5-min Rain = 0
KPD1 131409Z 26003KT M05/M08 A3002 RMK A01 T10481078  RH  080%=      5-min Rain = 0
KPD1 131410Z 27002KT M05/M08 A3002 RMK A01 T10481078  RH  080%=      5-min Rain = 0
KPD1 131411Z 28002KT M05/M08 A3002 RMK A01 T10481077  RH  080%=      5-min Rain = 0
KPD1 131412Z 29002KT M05/M08 A3002 RMK A01 T10471077  RH  080%=      5-min Rain = 0
KPD1 131413Z 30002KT M05/M08 A3002 RMK A01 T10471076  RH  080%=      5-min Rain = 0
KPD1 131414Z 29003KT M05/M08 A3002 RMK A01 T10461075  RH  080%=      5-min Rain = 0
KPD1 131415Z 28003KT M05/M08 A3002 RMK A01 T10461075  RH  080%=      5-min Rain = 0
KPD1 131416Z 28003KT M05/M08 A3002 RMK A01 T10451075  RH  080%=      5-min Rain = 0
KPD1 131417Z 29003KT M05/M08 A3002 RMK A01 T10451075  RH  080%=      5-min Rain = 0
KPD1 131418Z 30003KT M04/M07 A3002 RMK A01 T10441074  RH  080%=      5-min Rain = 0
KPD1 131419Z 32003KT M04/M07 A3003 RMK A01 T10441074  RH  080%=      5-min Rain = 0
KPD1 131420Z 31004KT M04/M07 A3003 RMK A01 T10441074  RH  080%=      5-min Rain = 0
KPD1 131421Z 31005KT M04/M07 A3003 RMK A01 T10431073  RH  080%=      5-min Rain = 0
KPD1 131422Z 29005KT M04/M07 A3003 RMK A01 T10421072  RH  080%=      5-min Rain = 0
KPD1 131423Z 29005KT M04/M07 A3003 RMK A01 T10411070  RH  080%=      5-min Rain = 0
KPD1 131424Z 29005KT M04/M07 A3003 RMK A01 T10401070  RH  079%=      5-min Rain = 0
KPD1 131425Z 29005KT M04/M07 A3003 RMK A01 T10391070  RH  079%=      5-min Rain = 0
KPD1 131426Z 29005KT M04/M07 A3003 RMK A01 T10381069  RH  079%=      5-min Rain = 0
KPD1 131427Z 29006KT M04/M07 A3003 RMK A01 T10371069  RH  078%=      5-min Rain = 0
KPD1 131428Z 29007KT M04/M07 A3003 RMK A01 T10361069  RH  078%=      5-min Rain = 0
KPD1 131429Z 28005KT M04/M07 A3003 RMK A01 T10351068  RH  078%=      5-min Rain = 0
KPD1 131430Z 28006KT M04/M07 A3003 RMK A01 T10351068  RH  078%=      5-min Rain = 0
KPD1 131431Z 28005KT M04/M07 A3003 RMK A01 T10351068  RH  077%=      5-min Rain = 0
KPD1 131432Z 28007KT M03/M07 A3003 RMK A01 T10341068  RH  077%=      5-min Rain = 0
KPD1 131433Z 29006KT M03/M07 A3003 RMK A01 T10331068  RH  077%=      5-min Rain = 0
KPD1 131434Z 29006KT M03/M07 A3003 RMK A01 T10331068  RH  077%=      5-min Rain = 0
KPD1 131435Z 29006KT M03/M07 A3003 RMK A01 T10321068  RH  076%=      5-min Rain = 0
KPD1 131436Z 31005KT M03/M07 A3003 RMK A01 T10321068  RH  076%=      5-min Rain = 0
KPD1 131437Z 29005KT M03/M07 A3003 RMK A01 T10321068  RH  076%=      5-min Rain = 0
KPD1 131438Z 30006KT M03/M07 A3003 RMK A01 T10321068  RH  076%=      5-min Rain = 0
KPD1 131439Z 30005KT M03/M07 A3003 RMK A01 T10321069  RH  076%=      5-min Rain = 0
KPD1 131440Z 30006KT M03/M07 A3003 RMK A01 T10321069  RH  076%=      5-min Rain = 0
KPD1 131441Z 29005KT M03/M07 A3003 RMK A01 T10321069  RH  076%=      5-min Rain = 0
KPD1 131442Z 28005KT M03/M07 A3003 RMK A01 T10321069  RH  076%=      5-min Rain = 0
KPD1 131443Z 29004KT M03/M07 A3002 RMK A01 T10321069  RH  076%=      5-min Rain = 0
KPD1 131444Z 28004KT M03/M07 A3002 RMK A01 T10321069  RH  076%=      5-min Rain = 0
KPD1 131445Z 27007KT M03/M07 A3002 RMK A01 T10321069  RH  076%=      5-min Rain = 0
KPD1 131446Z 27004KT M03/M07 A3002 RMK A01 T10321069  RH  076%=      5-min Rain = 0
KPD1 131447Z 27005KT M03/M07 A3002 RMK A01 T10321069  RH  076%=      5-min Rain = 0
KPD1 131448Z 27006KT M03/M07 A3002 RMK A01 T10311069  RH  075%=      5-min Rain = 0
KPD1 131449Z 27006KT M03/M07 A3002 RMK A01 T10301068  RH  075%=      5-min Rain = 0
KPD1 131450Z 27003KT M03/M07 A3002 RMK A01 T10291068  RH  075%=      5-min Rain = 0
KPD1 131451Z 26004KT M03/M07 A3002 RMK A01 T10291067  RH  075%=      5-min Rain = 0
KPD1 131452Z 28004KT M03/M07 A3002 RMK A01 T10281067  RH  075%=      5-min Rain = 0
KPD1 131453Z 27004KT M03/M07 A3002 RMK A01 T10281067  RH  074%=      5-min Rain = 0
KPD1 131454Z 28005KT M03/M07 A3002 RMK A01 T10271067  RH  074%=      5-min Rain = 0
KPD1 131455Z 28003KT M03/M07 A3002 RMK A01 T10261067  RH  074%=      5-min Rain = 0
KPD1 131456Z 29003KT M03/M07 A3002 RMK A01 T10261066  RH  074%=      5-min Rain = 0
KPD1 131457Z 28003KT M03/M07 A3002 RMK A01 T10251066  RH  074%=      5-min Rain = 0
KPD1 131458Z 28004KT M02/M07 A3002 RMK A01 T10241065  RH  074%=      5-min Rain = 0
KPD1 131459Z 28005KT M02/M06 A3002 RMK A01 T10231064  RH  073%=      5-min Rain = 0
KPD1 131500Z 27006KT M02/M06 A3002 RMK A01 T10211063  RH  073%=      5-min Rain = 0
KPD1 131501Z 27005KT M02/M06 A3002 RMK A01 T10201063  RH  073%=      5-min Rain = 0
KPD1 131502Z 25004KT M02/M06 A3002 RMK A01 T10191063  RH  072%=      5-min Rain = 0
KPD1 131503Z 26003KT M02/M06 A3002 RMK A01 T10191063  RH  072%=      5-min Rain = 0
KPD1 131504Z 26004KT M02/M06 A3002 RMK A01 T10181063  RH  072%=      5-min Rain = 0
KPD1 131505Z 28004KT M02/M06 A3002 RMK A01 T10181063  RH  072%=      5-min Rain = 0
KPD1 131506Z 27005KT M02/M06 A3002 RMK A01 T10181063  RH  071%=      5-min Rain = 0
KPD1 131507Z 26003KT M02/M06 A3002 RMK A01 T10181064  RH  071%=      5-min Rain = 0
KPD1 131508Z 26005KT M02/M06 A3002 RMK A01 T10181064  RH  071%=      5-min Rain = 0
KPD1 131509Z 29002KT M02/M06 A3002 RMK A01 T10171064  RH  071%=      5-min Rain = 0
KPD1 131510Z 01000KT M02/M06 A3002 RMK A01 T10171063  RH  071%=      5-min Rain = 0
KPD1 131511Z 34000KT M02/M06 A3002 RMK A01 T10161062  RH  071%=      5-min Rain = 0
KPD1 131512Z 32002KT M02/M06 A3002 RMK A01 T10161062  RH  070%=      5-min Rain = 0
KPD1 131513Z 30001KT M02/M06 A3002 RMK A01 T10151062  RH  070%=      5-min Rain = 0
KPD1 131514Z 32001KT M01/M06 A3002 RMK A01 T10131060  RH  070%=      5-min Rain = 0
KPD1 131515Z 27003KT M01/M06 A3002 RMK A01 T10111059  RH  070%=      5-min Rain = 0
KPD1 131516Z 36001KT M01/M06 A3002 RMK A01 T10101059  RH  069%=      5-min Rain = 0
KPD1 131517Z 31004KT M01/M06 A3002 RMK A01 T10081059  RH  069%=      5-min Rain = 0
KPD1 131518Z 29005KT M01/M06 A3002 RMK A01 T10071058  RH  068%=      5-min Rain = 0
KPD1 131519Z 27003KT M01/M06 A3001 RMK A01 T10061057  RH  068%=      5-min Rain = 0
KPD1 131520Z 31005KT M01/M06 A3001 RMK A01 T10051057  RH  068%=      5-min Rain = 0
KPD1 131521Z 28006KT M01/M06 A3001 RMK A01 T10051057  RH  068%=      5-min Rain = 0
KPD1 131522Z 28005G10KT M01/M06 A3001 RMK A01 T10051057  RH  067%=      5-min Rain = 0
KPD1 131523Z 27007KT M00/M06 A3001 RMK A01 T10041057  RH  068%=      5-min Rain = 0
KPD1 131524Z 28007KT M00/M06 A3001 RMK A01 T10041056  RH  068%=      5-min Rain = 0
KPD1 131525Z 29002KT M00/M06 A3001 RMK A01 T10031056  RH  068%=      5-min Rain = 0
KPD1 131526Z 29006KT M00/M05 A3001 RMK A01 T10021054  RH  068%=      5-min Rain = 0
KPD1 131527Z 29007KT M00/M05 A3001 RMK A01 T10021054  RH  068%=      5-min Rain = 0
KPD1 131528Z 32007KT M00/M06 A3001 RMK A01 T10011055  RH  067%=      5-min Rain = 0
KPD1 131529Z 31008KT M00/M06 A3001 RMK A01 T10011055  RH  067%=      5-min Rain = 0
KPD1 131530Z 29008KT M00/M06 A3001 RMK A01 T10011055  RH  067%=      5-min Rain = 0
KPD1 131531Z 29006KT M00/M06 A3001 RMK A01 T10011055  RH  067%=      5-min Rain = 0
KPD1 131532Z 29009KT 00/05 A3001 RMK A01 T00000-53  RH  067%=      5-min Rain = 0
KPD1 131533Z 29009KT 00/M05 A3001 RMK A01 T00021052  RH  067%=      5-min Rain = 0
KPD1 131534Z 28009G14KT 00/M05 A3001 RMK A01 T00021053  RH  067%=      5-min Rain = 0
KPD1 131535Z 28011KT 00/M05 A3001 RMK A01 T00031052  RH  066%=      5-min Rain = 0
KPD1 131536Z 28010G15KT 00/M05 A3001 RMK A01 T00031053  RH  066%=      5-min Rain = 0
KPD1 131537Z 28009KT 00/M05 A3001 RMK A01 T00031053  RH  066%=      5-min Rain = 0
KPD1 131538Z 28010G15KT 00/M05 A3001 RMK A01 T00031054  RH  066%=      5-min Rain = 0
KPD1 131539Z 28009KT 00/M05 A3001 RMK A01 T00031054  RH  066%=      5-min Rain = 0
KPD1 131540Z 28006KT 00/M05 A3001 RMK A01 T00021054  RH  066%=      5-min Rain = 0
KPD1 131541Z 29009KT 00/M05 A3002 RMK A01 T00011054  RH  066%=      5-min Rain = 0
KPD1 131542Z 29008G13KT 00/M05 A3002 RMK A01 T00011054  RH  067%=      5-min Rain = 0
KPD1 131543Z 29008KT 00/05 A3002 RMK A01 T00-00-54  RH  067%=      5-min Rain = 0
KPD1 131544Z 29009KT M00/M06 A3002 RMK A01 T10011055  RH  067%=      5-min Rain = 0
KPD1 131545Z 29009KT M00/M06 A3002 RMK A01 T10021056  RH  067%=      5-min Rain = 0
KPD1 131546Z 29011KT M00/M06 A3002 RMK A01 T10021057  RH  067%=      5-min Rain = 0
KPD1 131547Z 29013KT M00/M06 A3002 RMK A01 T10031058  RH  066%=      5-min Rain = 0
KPD1 131548Z 29009G15KT M00/M06 A3002 RMK A01 T10021058  RH  066%=      5-min Rain = 0
KPD1 131549Z 29011KT M00/M06 A3002 RMK A01 T10031058  RH  066%=      5-min Rain = 0
KPD1 131550Z 28009KT M00/M06 A3002 RMK A01 T10021057  RH  066%=      5-min Rain = 0
KPD1 131551Z 29010KT M00/M06 A3002 RMK A01 T10021057  RH  067%=      5-min Rain = 0
KPD1 131552Z 29012KT M00/M06 A3002 RMK A01 T10021056  RH  067%=      5-min Rain = 0
KPD1 131553Z 29011KT M00/M06 A3002 RMK A01 T10011055  RH  067%=      5-min Rain = 0
KPD1 131554Z 29011G16KT 00/05 A3002 RMK A01 T00000-54  RH  067%=      5-min Rain = 0
KPD1 131555Z 29011G16KT 00/M05 A3002 RMK A01 T00011054  RH  066%=      5-min Rain = 0
KPD1 131556Z 30011KT 00/M06 A3002 RMK A01 T00011055  RH  066%=      5-min Rain = 0
KPD1 131557Z 30010KT 00/M06 A3002 RMK A01 T00011055  RH  066%=      5-min Rain = 0
KPD1 131558Z 30008KT 00/M05 A3002 RMK A01 T00011054  RH  067%=      5-min Rain = 0
KPD1 131559Z 30007KT 00/M05 A3002 RMK A01 T00031052  RH  066%=      5-min Rain = 0
KPD1 131600Z 30008KT 01/M05 A3002 RMK A01 T00051051  RH  066%=      5-min Rain = 0
KPD1 131601Z 30009KT 01/M05 A3002 RMK A01 T00061051  RH  066%=      5-min Rain = 0
KPD1 131602Z 29009G14KT 01/M05 A3002 RMK A01 T00071052  RH  065%=      5-min Rain = 0
KPD1 131603Z 29008G13KT 01/M05 A3002 RMK A01 T00081052  RH  064%=      5-min Rain = 0
KPD1 131604Z 29010G15KT 01/M05 A3002 RMK A01 T00091051  RH  064%=      5-min Rain = 0
KPD1 131605Z 30007KT 01/M05 A3002 RMK A01 T00101051  RH  064%=      5-min Rain = 0
KPD1 131606Z 30006KT 01/M05 A3002 RMK A01 T00121049  RH  064%=      5-min Rain = 0
KPD1 131607Z 30010KT 01/M05 A3002 RMK A01 T00131048  RH  064%=      5-min Rain = 0
KPD1 131608Z 30009KT 01/M05 A3002 RMK A01 T00141048  RH  064%=      5-min Rain = 0
KPD1 131609Z 30010KT 01/M05 A3002 RMK A01 T00141049  RH  063%=      5-min Rain = 0
KPD1 131610Z 31006KT 02/M05 A3002 RMK A01 T00151048  RH  063%=      5-min Rain = 0
KPD1 131611Z 31006G11KT 02/M05 A3002 RMK A01 T00161046  RH  063%=      5-min Rain = 0
KPD1 131612Z 30009KT 02/M05 A3002 RMK A01 T00161046  RH  063%=      5-min Rain = 0
KPD1 131613Z 30006G12KT 02/M05 A3002 RMK A01 T00181045  RH  063%=      5-min Rain = 0
KPD1 131614Z 29007KT 02/M05 A3002 RMK A01 T00181045  RH  063%=      5-min Rain = 0
KPD1 131615Z 29006G11KT 02/M04 A3002 RMK A01 T00201044  RH  063%=      5-min Rain = 0
KPD1 131616Z 29007KT 02/M04 A3002 RMK A01 T00211044  RH  062%=      5-min Rain = 0
KPD1 131617Z 29007KT 02/M04 A3002 RMK A01 T00231042  RH  062%=      5-min Rain = 0
KPD1 131618Z 30007KT 02/M04 A3002 RMK A01 T00241041  RH  062%=      5-min Rain = 0
KPD1 131619Z 30005KT 03/M04 A3002 RMK A01 T00261041  RH  061%=      5-min Rain = 0
KPD1 131620Z 30004KT 03/M04 A3002 RMK A01 T00271039  RH  062%=      5-min Rain = 0
KPD1 131621Z 31009KT 03/M04 A3002 RMK A01 T00301038  RH  061%=      5-min Rain = 0
KPD1 131622Z 30009KT 03/M04 A3002 RMK A01 T00301040  RH  060%=      5-min Rain = 0
KPD1 131623Z 30006KT 03/M04 A3002 RMK A01 T00321039  RH  060%=      5-min Rain = 0
KPD1 131624Z 31005KT 03/M04 A3002 RMK A01 T00331038  RH  060%=      5-min Rain = 0
KPD1 131625Z 31004KT 04/M04 A3002 RMK A01 T00351036  RH  060%=      5-min Rain = 0
KPD1 131626Z 32006KT 04/M04 A3002 RMK A01 T00371035  RH  059%=      5-min Rain = 0
KPD1 131627Z 31006KT 04/M04 A3002 RMK A01 T00381038  RH  058%=      5-min Rain = 0
KPD1 131628Z 29005KT 04/M04 A3002 RMK A01 T00401035  RH  058%=      5-min Rain = 0
KPD1 131629Z 31007KT 04/M03 A3002 RMK A01 T00421034  RH  058%=      5-min Rain = 0
KPD1 131630Z 31005KT 04/M04 A3003 RMK A01 T00421035  RH  057%=      5-min Rain = 0
KPD1 131631Z 31007KT 04/M03 A3003 RMK A01 T00441033  RH  057%=      5-min Rain = 0
KPD1 131632Z 31009KT 05/M03 A3003 RMK A01 T00461034  RH  056%=      5-min Rain = 0
KPD1 131633Z 30010KT 05/M04 A3003 RMK A01 T00461038  RH  055%=      5-min Rain = 0
KPD1 131634Z 30008G13KT 05/M04 A3003 RMK A01 T00451039  RH  055%=      5-min Rain = 0
KPD1 131635Z 30008KT 04/M04 A3003 RMK A01 T00441038  RH  055%=      5-min Rain = 0
KPD1 131636Z 30007KT 04/M04 A3003 RMK A01 T00431037  RH  056%=      5-min Rain = 0
KPD1 131637Z 32004KT 04/M04 A3003 RMK A01 T00441035  RH  057%=      5-min Rain = 0
KPD1 131638Z 29005G12KT 05/M03 A3003 RMK A01 T00461032  RH  057%=      5-min Rain = 0
KPD1 131639Z 29007KT 05/M03 A3003 RMK A01 T00471031  RH  057%=      5-min Rain = 0
KPD1 131640Z 30008KT 05/M03 A3003 RMK A01 T00461033  RH  056%=      5-min Rain = 0
KPD1 131641Z 29008KT 05/M03 A3003 RMK A01 T00461033  RH  057%=      5-min Rain = 0
KPD1 131642Z 30008KT 05/M03 A3003 RMK A01 T00451033  RH  057%=      5-min Rain = 0
KPD1 131643Z 30009KT 04/M03 A3003 RMK A01 T00441033  RH  057%=      5-min Rain = 0
KPD1 131644Z 29011KT 05/M04 A3003 RMK A01 T00451035  RH  056%=      5-min Rain = 0
KPD1 131645Z 30009G14KT 04/M04 A3003 RMK A01 T00441036  RH  056%=      5-min Rain = 0
KPD1 131646Z 30010KT 04/M04 A3003 RMK A01 T00431035  RH  057%=      5-min Rain = 0
KPD1 131647Z 28009KT 04/M03 A3003 RMK A01 T00431034  RH  057%=      5-min Rain = 0
KPD1 131648Z 28008G13KT 04/M04 A3003 RMK A01 T00421035  RH  057%=      5-min Rain = 0
KPD1 131649Z 29008KT 04/M04 A3003 RMK A01 T00411035  RH  058%=      5-min Rain = 0
KPD1 131650Z 29008KT 04/M03 A3003 RMK A01 T00411034  RH  058%=      5-min Rain = 0
KPD1 131651Z 29008KT 04/M03 A3003 RMK A01 T00401033  RH  059%=      5-min Rain = 0
KPD1 131652Z 29006KT 04/M03 A3003 RMK A01 T00411033  RH  059%=      5-min Rain = 0
KPD1 131653Z 30006KT 04/M03 A3003 RMK A01 T00421032  RH  059%=      5-min Rain = 0
KPD1 131654Z 31007KT 04/M03 A3003 RMK A01 T00431031  RH  059%=      5-min Rain = 0
KPD1 131655Z 32006KT 04/M03 A3003 RMK A01 T00431031  RH  058%=      5-min Rain = 0
KPD1 131656Z 33007KT 04/M03 A3003 RMK A01 T00431031  RH  059%=      5-min Rain = 0
KPD1 131657Z 32005KT 04/M03 A3003 RMK A01 T00441030  RH  059%=      5-min Rain = 0
KPD1 131658Z 33005G10KT 04/M03 A3003 RMK A01 T00441031  RH  058%=      5-min Rain = 0
KPD1 131659Z 32005KT 04/M03 A3003 RMK A01 T00441030  RH  058%=      5-min Rain = 0
KPD1 131700Z 31006KT 05/M03 A3003 RMK A01 T00461030  RH  058%=      5-min Rain = 0
KPD1 131701Z 30004KT 05/M03 A3003 RMK A01 T00461031  RH  057%=      5-min Rain = 0
KPD1 131702Z 31007KT 05/M03 A3003 RMK A01 T00471029  RH  058%=      5-min Rain = 0
KPD1 131703Z 31006KT 05/M03 A3003 RMK A01 T00471030  RH  057%=      5-min Rain = 0
KPD1 131704Z 30009G14KT 05/M03 A3003 RMK A01 T00481029  RH  057%=      5-min Rain = 0
KPD1 131705Z 30010KT 05/M03 A3003 RMK A01 T00491031  RH  056%=      5-min Rain = 0
KPD1 131706Z 30008KT 05/M03 A3002 RMK A01 T00491032  RH  056%=      5-min Rain = 0
KPD1 131707Z 30006KT 05/M03 A3002 RMK A01 T00511030  RH  056%=      5-min Rain = 0
KPD1 131708Z 32005G10KT 05/M03 A3002 RMK A01 T00531028  RH  056%=      5-min Rain = 0
KPD1 131709Z 32006KT 06/M03 A3002 RMK A01 T00551027  RH  055%=      5-min Rain = 0
KPD1 131710Z 32006KT 06/M03 A3002 RMK A01 T00571028  RH  054%=      5-min Rain = 0
KPD1 131711Z 33005KT 06/M03 A3002 RMK A01 T00571030  RH  053%=      5-min Rain = 0
KPD1 131712Z 34005KT 06/M03 A3003 RMK A01 T00591029  RH  053%=      5-min Rain = 0
KPD1 131713Z 32007KT 06/M03 A3003 RMK A01 T00601029  RH  053%=      5-min Rain = 0
KPD1 131714Z 32008KT 06/M03 A3003 RMK A01 T00611030  RH  052%=      5-min Rain = 0
KPD1 131715Z 32007KT 06/M03 A3002 RMK A01 T00621030  RH  052%=      5-min Rain = 0
KPD1 131716Z 31010KT 06/M03 A3002 RMK A01 T00631030  RH  052%=      5-min Rain = 0
KPD1 131717Z 31006KT 06/M03 A3002 RMK A01 T00631031  RH  051%=      5-min Rain = 0
KPD1 131718Z 31009KT 06/M03 A3002 RMK A01 T00641031  RH  051%=      5-min Rain = 0
KPD1 131719Z 30007KT 07/M03 A3002 RMK A01 T00651031  RH  050%=      5-min Rain = 0
KPD1 131720Z 29007KT 07/M03 A3002 RMK A01 T00651030  RH  050%=      5-min Rain = 0
KPD1 131721Z 30005G10KT 07/M03 A3002 RMK A01 T00671028  RH  051%=      5-min Rain = 0
KPD1 131722Z 31007KT 07/M02 A3002 RMK A01 T00701024  RH  051%=      5-min Rain = 0
KPD1 131723Z 30010KT 07/M03 A3002 RMK A01 T00721027  RH  049%=      5-min Rain = 0
KPD1 131724Z 30007KT 07/M03 A3002 RMK A01 T00731027  RH  049%=      5-min Rain = 0
KPD1 131725Z 30007KT 07/M03 A3002 RMK A01 T00741026  RH  049%=      5-min Rain = 0
KPD1 131726Z 30009KT 08/M03 A3002 RMK A01 T00761025  RH  049%=      5-min Rain = 0
KPD1 131727Z 30008KT 08/M03 A3002 RMK A01 T00771026  RH  048%=      5-min Rain = 0
KPD1 131728Z 30007KT 08/M03 A3002 RMK A01 T00771025  RH  048%=      5-min Rain = 0
KPD1 131729Z 30010KT 08/M02 A3002 RMK A01 T00791024  RH  048%=      5-min Rain = 0
KPD1 131730Z 30007KT 08/M03 A3002 RMK A01 T00801026  RH  047%=      5-min Rain = 0
KPD1 131731Z 30006KT 08/M03 A3002 RMK A01 T00811025  RH  047%=      5-min Rain = 0
KPD1 131732Z 29007KT 08/M02 A3002 RMK A01 T00821024  RH  047%=      5-min Rain = 0
KPD1 131733Z 32007KT 08/M02 A3002 RMK A01 T00831024  RH  047%=      5-min Rain = 0
KPD1 131734Z 32007KT 08/M03 A3002 RMK A01 T00831025  RH  046%=      5-min Rain = 0
KPD1 131735Z 32007KT 08/M03 A3002 RMK A01 T00831025  RH  046%=      5-min Rain = 0
KPD1 131736Z 32007KT 09/M02 A3002 RMK A01 T00851023  RH  046%=      5-min Rain = 0
KPD1 131737Z 33008KT 09/M02 A3002 RMK A01 T00861023  RH  046%=      5-min Rain = 0
KPD1 131738Z 31008KT 09/M03 A3002 RMK A01 T00871026  RH  045%=      5-min Rain = 0
KPD1 131739Z 30006G11KT 09/M03 A3002 RMK A01 T00871025  RH  045%=      5-min Rain = 0
KPD1 131740Z 30010KT 09/M03 A3002 RMK A01 T00881025  RH  045%=      5-min Rain = 0
KPD1 131741Z 30010KT 09/M03 A3002 RMK A01 T00871026  RH  045%=      5-min Rain = 0
KPD1 131742Z 31009KT 09/M03 A3001 RMK A01 T00871026  RH  045%=      5-min Rain = 0
KPD1 131743Z 31007KT 09/M03 A3001 RMK A01 T00881026  RH  045%=      5-min Rain = 0
KPD1 131744Z 28007KT 09/M03 A3001 RMK A01 T00891026  RH  044%=      5-min Rain = 0
KPD1 131745Z 29007KT 09/M03 A3001 RMK A01 T00901025  RH  044%=      5-min Rain = 0
KPD1 131746Z 32007KT 09/M02 A3001 RMK A01 T00931024  RH  044%=      5-min Rain = 0
KPD1 131747Z 30008KT 09/M03 A3001 RMK A01 T00931026  RH  043%=      5-min Rain = 0
KPD1 131748Z 29009KT 09/M03 A3001 RMK A01 T00911027  RH  043%=      5-min Rain = 0
KPD1 131749Z 29007KT 09/M03 A3001 RMK A01 T00901027  RH  044%=      5-min Rain = 0
KPD1 131750Z 28007KT 09/M02 A3001 RMK A01 T00921023  RH  044%=      5-min Rain = 0
KPD1 131751Z 28008KT 09/M02 A30 RMK A01 T00931023  RH  044%=      5-min Rain = 0
KPD1 131752Z 28008KT 09/M02 A30 RMK A01 T00931024  RH  044%=      5-min Rain = 0
KPD1 131753Z 29008KT 09/M03 A30 RMK A01 T00931026  RH  043%=      5-min Rain = 0
KPD1 131754Z 28008KT 09/M03 A30 RMK A01 T00911027  RH  043%=      5-min Rain = 0
KPD1 131755Z 29008KT 09/M03 A30 RMK A01 T00931026  RH  043%=      5-min Rain = 0
KPD1 131756Z 28007KT 09/M03 A30 RMK A01 T00931026  RH  043%=      5-min Rain = 0
KPD1 131757Z 28007KT 10/M02 A30 RMK A01 T00961023  RH  043%=      5-min Rain = 0
KPD1 131758Z 28008KT 10/M03 A30 RMK A01 T00971025  RH  042%=      5-min Rain = 0
KPD1 131759Z 28008KT 10/M03 A30 RMK A01 T00981026  RH  042%=      5-min Rain = 0
KPD1 131800Z 30007KT 10/M03 A2999 RMK A01 T01001025  RH  041%=      5-min Rain = 0
KPD1 131801Z 29007KT 10/M03 A2999 RMK A01 T01011027  RH  041%=      5-min Rain = 0
KPD1 131802Z 29007KT 10/M03 A2999 RMK A01 T01031025  RH  041%=      5-min Rain = 0
KPD1 131803Z 30007KT 10/M03 A2999 RMK A01 T01041027  RH  040%=      5-min Rain = 0
KPD1 131804Z 30007KT 10/M03 A2999 RMK A01 T01041030  RH  039%=      5-min Rain = 0
KPD1 131805Z 30006KT 10/M03 A2999 RMK A01 T01021029  RH  040%=      5-min Rain = 0
KPD1 131806Z 30005KT 10/M03 A2998 RMK A01 T01021029  RH  040%=      5-min Rain = 0
KPD1 131807Z 29006KT 10/M03 A2998 RMK A01 T01011029  RH  040%=      5-min Rain = 0
KPD1 131808Z 29005KT 10/M03 A2998 RMK A01 T01021026  RH  041%=      5-min Rain = 0
KPD1 131809Z 28003KT 10/M02 A2998 RMK A01 T01041023  RH  041%=      5-min Rain = 0
KPD1 131810Z 29006KT 11/M02 A2998 RMK A01 T01071021  RH  041%=      5-min Rain = 0
KPD1 131811Z 29007KT 11/M03 A2998 RMK A01 T01081026  RH  039%=      5-min Rain = 0
KPD1 131812Z 29005KT 11/M03 A2998 RMK A01 T01091030  RH  038%=      5-min Rain = 0
KPD1 131813Z 30004KT 11/M03 A2998 RMK A01 T01091027  RH  039%=      5-min Rain = 0
KPD1 131814Z 29005KT 11/M02 A2998 RMK A01 T01111024  RH  039%=      5-min Rain = 0
KPD1 131815Z 29006KT 11/M03 A2998 RMK A01 T01121026  RH  038%=      5-min Rain = 0
KPD1 131816Z 30007KT 11/M03 A2997 RMK A01 T01121026  RH  038%=      5-min Rain = 0
KPD1 131817Z 30005KT 11/M03 A2997 RMK A01 T01121026  RH  038%=      5-min Rain = 0
KPD1 131818Z 30004KT 11/M02 A2997 RMK A01 T01131023  RH  038%=      5-min Rain = 0
KPD1 131819Z 30005KT 12/M02 A2997 RMK A01 T01161023  RH  038%=      5-min Rain = 0
KPD1 131820Z 31004KT 12/M03 A2997 RMK A01 T01161025  RH  037%=      5-min Rain = 0
KPD1 131821Z 33006KT 12/M03 A2997 RMK A01 T01161026  RH  037%=      5-min Rain = 0
KPD1 131822Z 33005KT 12/M03 A2997 RMK A01 T01161025  RH  037%=      5-min Rain = 0
KPD1 131823Z 32006KT 12/M02 A2997 RMK A01 T01171023  RH  037%=      5-min Rain = 0
KPD1 131824Z 32006KT 12/M03 A2997 RMK A01 T01181025  RH  037%=      5-min Rain = 0
KPD1 131825Z 33006KT 12/M03 A2996 RMK A01 T01181027  RH  036%=      5-min Rain = 0
KPD1 131826Z 32006KT 12/M03 A2996 RMK A01 T01171026  RH  037%=      5-min Rain = 0
KPD1 131827Z 30006KT 12/M03 A2996 RMK A01 T01181025  RH  037%=      5-min Rain = 0
KPD1 131828Z 30004KT 12/M03 A2996 RMK A01 T01181027  RH  036%=      5-min Rain = 0
KPD1 131829Z 32005KT 12/M03 A2996 RMK A01 T01181025  RH  037%=      5-min Rain = 0
KPD1 131830Z 31006KT 12/M03 A2995 RMK A01 T01191027  RH  036%=      5-min Rain = 0
KPD1 131831Z 31004KT 12/M03 A2995 RMK A01 T01201030  RH  035%=      5-min Rain = 0
KPD1 131832Z 31004KT 12/M03 A2995 RMK A01 T01201029  RH  035%=      5-min Rain = 0
KPD1 131833Z 30003KT 12/M03 A2995 RMK A01 T01211028  RH  035%=      5-min Rain = 0
KPD1 131834Z 27004KT 12/M02 A2995 RMK A01 T01241023  RH  036%=      5-min Rain = 0
KPD1 131835Z 27004KT 13/M02 A2995 RMK A01 T01261024  RH  035%=      5-min Rain = 0
KPD1 131836Z 28002KT 13/M03 A2995 RMK A01 T01261027  RH  034%=      5-min Rain = 0
KPD1 131837Z 28004KT 13/M03 A2994 RMK A01 T01281025  RH  034%=      5-min Rain = 0
KPD1 131838Z 28004KT 13/M03 A2994 RMK A01 T01301030  RH  033%=      5-min Rain = 0
KPD1 131839Z 29005KT 13/M03 A2994 RMK A01 T01301033  RH  032%=      5-min Rain = 0
KPD1 131840Z 30004KT 13/M03 A2994 RMK A01 T01301033  RH  032%=      5-min Rain = 0
KPD1 131841Z 31003KT 13/M03 A2994 RMK A01 T01291033  RH  032%=      5-min Rain = 0
KPD1 131842Z 30002KT 13/M03 A2994 RMK A01 T01301031  RH  033%=      5-min Rain = 0
KPD1 131843Z 28001KT 13/M03 A2994 RMK A01 T01311028  RH  033%=      5-min Rain = 0
KPD1 131844Z 30003KT 13/M03 A2994 RMK A01 T01321026  RH  033%=      5-min Rain = 0
KPD1 131845Z 29005KT 13/M03 A2994 RMK A01 T01331027  RH  033%=      5-min Rain = 0
KPD1 131846Z 29004KT 13/M03 A2994 RMK A01 T01321030  RH  032%=      5-min Rain = 0
KPD1 131847Z 30002KT 13/M03 A2994 RMK A01 T01301032  RH  032%=      5-min Rain = 0
KPD1 131848Z 27003KT 13/M03 A2994 RMK A01 T01281031  RH  033%=      5-min Rain = 0
KPD1 131849Z 28003KT 13/M03 A2993 RMK A01 T01301025  RH  034%=      5-min Rain = 0
KPD1 131850Z 30004KT 13/M03 A2993 RMK A01 T01331026  RH  033%=      5-min Rain = 0
KPD1 131851Z 30004KT 14/M03 A2993 RMK A01 T01351027  RH  032%=      5-min Rain = 0
KPD1 131852Z 32005KT 14/M03 A2993 RMK A01 T01371029  RH  031%=      5-min Rain = 0
KPD1 131853Z 31004KT 14/M03 A2993 RMK A01 T01381031  RH  031%=      5-min Rain = 0
KPD1 131854Z 27004KT 14/M03 A2993 RMK A01 T01381031  RH  031%=      5-min Rain = 0
KPD1 131855Z 29004KT 14/M03 A2993 RMK A01 T01391029  RH  031%=      5-min Rain = 0
KPD1 131856Z 34004KT 14/M03 A2993 RMK A01 T01411030  RH  031%=      5-min Rain = 0
KPD1 131857Z 33004KT 14/M03 A2993 RMK A01 T01411031  RH  030%=      5-min Rain = 0
KPD1 131858Z 32005KT 14/M03 A2993 RMK A01 T01401033  RH  030%=      5-min Rain = 0
KPD1 131859Z 32005KT 14/M03 A2993 RMK A01 T01401031  RH  031%=      5-min Rain = 0
KPD1 131900Z 30004KT 14/M03 A2993 RMK A01 T01421029  RH  031%=      5-min Rain = 0
KPD1 131901Z 31003KT 14/M03 A2993 RMK A01 T01421029  RH  030%=      5-min Rain = 0
KPD1 131902Z 30003KT 14/M03 A2993 RMK A01 T01441028  RH  030%=      5-min Rain = 0
KPD1 131903Z 31003KT 15/M03 A2993 RMK A01 T01461030  RH  029%=      5-min Rain = 0
KPD1 131904Z 32003KT 15/M03 A2993 RMK A01 T01461032  RH  029%=      5-min Rain = 0
KPD1 131905Z 30003KT 14/M04 A2993 RMK A01 T01431036  RH  029%=      5-min Rain = 0
KPD1 131906Z 27005KT 14/M03 A2993 RMK A01 T01421033  RH  030%=      5-min Rain = 0
KPD1 131907Z 27003KT 14/M03 A2993 RMK A01 T01431033  RH  029%=      5-min Rain = 0
KPD1 131908Z 27002KT 14/M03 A2993 RMK A01 T01431034  RH  029%=      5-min Rain = 0
KPD1 131909Z 26001KT 14/M03 A2993 RMK A01 T01431032  RH  030%=      5-min Rain = 0
KPD1 131910Z 29003KT 15/M03 A2992 RMK A01 T01451028  RH  030%=      5-min Rain = 0
KPD1 131911Z 29004KT 15/M03 A2992 RMK A01 T01471028  RH  030%=      5-min Rain = 0
KPD1 131912Z 26004KT 15/M03 A2992 RMK A01 T01471029  RH  030%=      5-min Rain = 0
KPD1 131913Z 28004KT 15/M03 A2992 RMK A01 T01481028  RH  029%=      5-min Rain = 0
KPD1 131914Z 28005KT 15/M03 A2992 RMK A01 T01481027  RH  030%=      5-min Rain = 0
KPD1 131915Z 27003KT 15/M03 A2992 RMK A01 T01481026  RH  030%=      5-min Rain = 0
KPD1 131916Z 27003KT 15/M03 A2992 RMK A01 T01471026  RH  030%=      5-min Rain = 0
KPD1 131917Z 27004KT 15/M03 A2992 RMK A01 T01481025  RH  030%=      5-min Rain = 0
KPD1 131918Z 29004KT 15/M03 A2992 RMK A01 T01491026  RH  030%=      5-min Rain = 0
KPD1 131919Z 29003KT 15/M03 A2992 RMK A01 T01481030  RH  029%=      5-min Rain = 0
KPD1 131920Z 30001KT 15/M03 A2992 RMK A01 T01471027  RH  030%=      5-min Rain = 0
KPD1 131921Z 31005KT 15/M03 A2992 RMK A01 T01491026  RH  030%=      5-min Rain = 0
KPD1 131922Z 33004KT 15/M03 A2992 RMK A01 T01501025  RH  030%=      5-min Rain = 0
KPD1 131923Z 32004KT 15/M02 A2992 RMK A01 T01501024  RH  030%=      5-min Rain = 0
KPD1 131924Z 31005KT 15/M02 A2992 RMK A01 T01521022  RH  030%=      5-min Rain = 0
KPD1 131925Z 31003KT 15/M02 A2992 RMK A01 T01521021  RH  030%=      5-min Rain = 0
KPD1 131926Z 29004KT 15/M02 A2991 RMK A01 T01521021  RH  031%=      5-min Rain = 0
KPD1 131927Z 26004KT 15/M02 A2991 RMK A01 T01531019  RH  031%=      5-min Rain = 0
KPD1 131928Z 26004KT 15/M02 A2991 RMK A01 T01531020  RH  030%=      5-min Rain = 0
KPD1 131929Z 26004KT 15/M02 A2991 RMK A01 T01541019  RH  031%=      5-min Rain = 0
KPD1 131930Z 27002KT 16/M02 A2991 RMK A01 T01561017  RH  030%=      5-min Rain = 0
KPD1 131931Z 27004KT 16/M02 A2991 RMK A01 T01571018  RH  030%=      5-min Rain = 0
KPD1 131932Z 27003KT 16/M02 A2991 RMK A01 T01571018  RH  030%=      5-min Rain = 0
KPD1 131933Z 25003KT 16/M02 A2991 RMK A01 T01561021  RH  030%=      5-min Rain = 0
KPD1 131934Z 27003KT 15/M02 A2991 RMK A01 T01541021  RH  030%=      5-min Rain = 0
KPD1 131935Z 29003KT 16/M02 A299 RMK A01 T01551020  RH  030%=      5-min Rain = 0
KPD1 131936Z 26003KT 16/M02 A299 RMK A01 T01551019  RH  030%=      5-min Rain = 0
KPD1 131937Z 26003KT 16/M02 A299 RMK A01 T01571018  RH  030%=      5-min Rain = 0
KPD1 131938Z 27002KT 16/M02 A299 RMK A01 T01571021  RH  029%=      5-min Rain = 0
KPD1 131939Z 24001KT 16/M02 A299 RMK A01 T01561019  RH  030%=      5-min Rain = 0
KPD1 131940Z 25004KT 16/M02 A299 RMK A01 T01581016  RH  030%=      5-min Rain = 0
KPD1 131941Z 27002KT 16/M02 A299 RMK A01 T01591019  RH  030%=      5-min Rain = 0
KPD1 131942Z 25002KT 16/M02 A299 RMK A01 T01591018  RH  030%=      5-min Rain = 0
KPD1 131943Z 23003KT 16/M02 A299 RMK A01 T01591019  RH  029%=      5-min Rain = 0
KPD1 131944Z 25003KT 16/M02 A299 RMK A01 T01601018  RH  029%=      5-min Rain = 0
KPD1 131945Z 26004KT 16/M02 A299 RMK A01 T01611018  RH  029%=      5-min Rain = 0
KPD1 131946Z 27005KT 16/M02 A299 RMK A01 T01621021  RH  029%=      5-min Rain = 0
KPD1 131947Z 27003KT 16/M02 A299 RMK A01 T01621020  RH  029%=      5-min Rain = 0
KPD1 131948Z 29000KT 16/M02 A299 RMK A01 T01611022  RH  029%=      5-min Rain = 0
KPD1 131949Z 25003KT 16/M02 A299 RMK A01 T01621017  RH  029%=      5-min Rain = 0
KPD1 131950Z 24003KT 17/M02 A299 RMK A01 T01651016  RH  029%=      5-min Rain = 0
KPD1 131951Z 23004KT 17/M02 A299 RMK A01 T01671018  RH  028%=      5-min Rain = 0
KPD1 131952Z 23005KT 17/M02 A299 RMK A01 T01661020  RH  028%=      5-min Rain = 0
KPD1 131953Z 25004KT 17/M02 A299 RMK A01 T01651020  RH  028%=      5-min Rain = 0
KPD1 131954Z 25004KT 16/M02 A299 RMK A01 T01641020  RH  028%=      5-min Rain = 0
KPD1 131955Z 27002KT 16/M02 A299 RMK A01 T01631021  RH  028%=      5-min Rain = 0
KPD1 131956Z 23003KT 16/M02 A299 RMK A01 T01611021  RH  029%=      5-min Rain = 0
KPD1 131957Z 26003KT 16/M02 A299 RMK A01 T01631019  RH  029%=      5-min Rain = 0
KPD1 131958Z 31004KT 16/M02 A299 RMK A01 T01641024  RH  028%=      5-min Rain = 0
KPD1 131959Z 29004KT 16/M02 A299 RMK A01 T01631024  RH  028%=      5-min Rain = 0
KPD1 132000Z 29002KT 16/M02 A299 RMK A01 T01641020  RH  028%=      5-min Rain = 0
KPD1 132001Z 29002KT 16/M02 A299 RMK A01 T01641021  RH  028%=      5-min Rain = 0
KPD1 132002Z 28005KT 17/M02 A299 RMK A01 T01651020  RH  028%=      5-min Rain = 0
KPD1 132003Z 27004KT 17/M02 A299 RMK A01 T01651024  RH  027%=      5-min Rain = 0
KPD1 132004Z 26004KT 16/M03 A299 RMK A01 T01641026  RH  027%=      5-min Rain = 0
KPD1 132005Z 27002KT 17/M03 A299 RMK A01 T01651029  RH  026%=      5-min Rain = 0
KPD1 132006Z 27002KT 17/M03 A299 RMK A01 T01661028  RH  026%=      5-min Rain = 0
KPD1 132007Z 28003KT 17/M02 A299 RMK A01 T01661022  RH  027%=      5-min Rain = 0
KPD1 132008Z 29003KT 17/M02 A299 RMK A01 T01681021  RH  027%=      5-min Rain = 0
KPD1 132009Z 27001KT 17/M02 A299 RMK A01 T01691020  RH  027%=      5-min Rain = 0
KPD1 132010Z 25001KT 17/M02 A299 RMK A01 T01711020  RH  027%=      5-min Rain = 0
KPD1 132011Z 26004KT 17/M02 A299 RMK A01 T01721019  RH  027%=      5-min Rain = 0
KPD1 132012Z 26005KT 18/M02 A299 RMK A01 T01751020  RH  027%=      5-min Rain = 0
KPD1 132013Z 26004KT 18/M02 A299 RMK A01 T01761024  RH  026%=      5-min Rain = 0
KPD1 132014Z 27004KT 18/M03 A299 RMK A01 T01751027  RH  025%=      5-min Rain = 0
KPD1 132015Z 27005KT 17/M03 A299 RMK A01 T01741033  RH  024%=      5-min Rain = 0
KPD1 132016Z 27004KT 17/M03 A299 RMK A01 T01741031  RH  025%=      5-min Rain = 0
KPD1 132017Z 27004KT 18/M03 A299 RMK A01 T01751031  RH  024%=      5-min Rain = 0
KPD1 132018Z 25004KT 18/M04 A299 RMK A01 T01751038  RH  023%=      5-min Rain = 0
KPD1 132019Z 28005KT 18/M03 A299 RMK A01 T01751034  RH  024%=      5-min Rain = 0
KPD1 132020Z 27005KT 18/M03 A299 RMK A01 T01761029  RH  025%=      5-min Rain = 0
KPD1 132021Z 27005KT 18/M03 A299 RMK A01 T01761028  RH  025%=      5-min Rain = 0
KPD1 132022Z 28003KT 18/M03 A299 RMK A01 T01761027  RH  025%=      5-min Rain = 0
KPD1 132023Z 28002KT 18/M03 A299 RMK A01 T01771028  RH  025%=      5-min Rain = 0
KPD1 132024Z 30002KT 18/M03 A299 RMK A01 T01771029  RH  024%=      5-min Rain = 0
KPD1 132025Z 26004KT 18/M03 A299 RMK A01 T01781030  RH  024%=      5-min Rain = 0
KPD1 132026Z 29005KT 18/M03 A299 RMK A01 T01801031  RH  024%=      5-min Rain = 0
KPD1 132027Z 29003KT 18/M04 A299 RMK A01 T01811035  RH  023%=      5-min Rain = 0
KPD1 132028Z 27004KT 18/M04 A299 RMK A01 T01811037  RH  022%=      5-min Rain = 0
KPD1 132029Z 27004KT 18/M04 A299 RMK A01 T01811040  RH  022%=      5-min Rain = 0
KPD1 132030Z 28004KT 18/M04 A299 RMK A01 T01811039  RH  022%=      5-min Rain = 0
KPD1 132031Z 30006KT 18/M04 A299 RMK A01 T01811036  RH  023%=      5-min Rain = 0
KPD1 132032Z 31005KT 18/M04 A299 RMK A01 T01801036  RH  023%=      5-min Rain = 0
KPD1 132033Z 31006KT 18/M04 A2989 RMK A01 T01791037  RH  023%=      5-min Rain = 0
KPD1 132034Z 31005KT 18/M04 A299 RMK A01 T01781036  RH  023%=      5-min Rain = 0
KPD1 132035Z 33004KT 18/M04 A299 RMK A01 T01791035  RH  023%=      5-min Rain = 0
KPD1 132036Z 32004KT 18/M04 A299 RMK A01 T01801036  RH  023%=      5-min Rain = 0
KPD1 132037Z 29003KT 18/M03 A299 RMK A01 T01821033  RH  023%=      5-min Rain = 0
KPD1 132038Z 28003KT 18/M03 A299 RMK A01 T01841033  RH  023%=      5-min Rain = 0
KPD1 132039Z 29005KT 19/M03 A299 RMK A01 T01851031  RH  023%=      5-min Rain = 0
KPD1 132040Z 31005KT 19/M03 A299 RMK A01 T01861033  RH  022%=      5-min Rain = 0
KPD1 132041Z 33003KT 19/M04 A299 RMK A01 T01851036  RH  022%=      5-min Rain = 0
KPD1 132042Z 31003KT 19/M04 A299 RMK A01 T01851037  RH  022%=      5-min Rain = 0
KPD1 132043Z 29003KT 19/M04 A299 RMK A01 T01851039  RH  022%=      5-min Rain = 0
KPD1 132044Z 31003KT 18/M04 A299 RMK A01 T01841040  RH  021%=      5-min Rain = 0
KPD1 132045Z 32005KT 18/M04 A299 RMK A01 T01831042  RH  021%=      5-min Rain = 0
KPD1 132046Z 32006KT 18/M05 A299 RMK A01 T01821045  RH  021%=      5-min Rain = 0
KPD1 132047Z 31006KT 18/M04 A299 RMK A01 T01831043  RH  021%=      5-min Rain = 0
KPD1 132048Z 29005KT 19/M04 A299 RMK A01 T01851040  RH  021%=      5-min Rain = 0
KPD1 132049Z 30004KT 19/M04 A2989 RMK A01 T01851042  RH  021%=      5-min Rain = 0
KPD1 132050Z 29002KT 19/M04 A2989 RMK A01 T01861044  RH  021%=      5-min Rain = 0
KPD1 132051Z 31003KT 19/M05 A2989 RMK A01 T01851049  RH  020%=      5-min Rain = 0
KPD1 132052Z 32003KT 18/M05 A2989 RMK A01 T01841050  RH  020%=      5-min Rain = 0
KPD1 132053Z 28004KT 18/M05 A2989 RMK A01 T01821048  RH  020%=      5-min Rain = 0
KPD1 132054Z 26002KT 18/M05 A2989 RMK A01 T01811049  RH  020%=      5-min Rain = 0
KPD1 132055Z 29001KT 18/M05 A2989 RMK A01 T01801054  RH  020%=      5-min Rain = 0
KPD1 132056Z 27003KT 18/M06 A2989 RMK A01 T01791055  RH  020%=      5-min Rain = 0
KPD1 132057Z 31003KT 18/M05 A2989 RMK A01 T01791053  RH  020%=      5-min Rain = 0
KPD1 132058Z 31004KT 18/M05 A2989 RMK A01 T01791051  RH  020%=      5-min Rain = 0
KPD1 132059Z 30003KT 18/M05 A2989 RMK A01 T01781049  RH  021%=      5-min Rain = 0
KPD1 132100Z 31003KT 18/M05 A2989 RMK A01 T01781047  RH  021%=      5-min Rain = 0
KPD1 132101Z 32004KT 18/M04 A2989 RMK A01 T01781044  RH  022%=      5-min Rain = 0
KPD1 132102Z 32004KT 18/M05 A2989 RMK A01 T01791048  RH  021%=      5-min Rain = 0
KPD1 132103Z 31004KT 18/M05 A2989 RMK A01 T01781050  RH  021%=      5-min Rain = 0
KPD1 132104Z 30004KT 18/M05 A2989 RMK A01 T01781047  RH  021%=      5-min Rain = 0
KPD1 132105Z 31002KT 18/M05 A2989 RMK A01 T01771047  RH  021%=      5-min Rain = 0
KPD1 132106Z 33003KT 18/M05 A2989 RMK A01 T01761046  RH  022%=      5-min Rain = 0
KPD1 132107Z 33003KT 18/M04 A2989 RMK A01 T01771042  RH  022%=      5-min Rain = 0
KPD1 132108Z 31002KT 18/M04 A2989 RMK A01 T01771041  RH  022%=      5-min Rain = 0
KPD1 132109Z 31002KT 18/M04 A2989 RMK A01 T01781042  RH  022%=      5-min Rain = 0
KPD1 132110Z 34002KT 18/M04 A2989 RMK A01 T01781042  RH  022%=      5-min Rain = 0
KPD1 132111Z 36001KT 18/M04 A2989 RMK A01 T01781042  RH  022%=      5-min Rain = 0
KPD1 132112Z 35001KT 18/M04 A2989 RMK A01 T01791038  RH  023%=      5-min Rain = 0
KPD1 132113Z 30001KT 18/M04 A2989 RMK A01 T01811037  RH  022%=      5-min Rain = 0
KPD1 132114Z 31000KT 18/M04 A2989 RMK A01 T01821040  RH  022%=      5-min Rain = 0
KPD1 132115Z 34002KT 18/M04 A2989 RMK A01 T01821040  RH  022%=      5-min Rain = 0
KPD1 132116Z 33002KT 18/M04 A2989 RMK A01 T01821044  RH  021%=      5-min Rain = 0
KPD1 132117Z 34001KT 18/M05 A2989 RMK A01 T01821045  RH  021%=      5-min Rain = 0
KPD1 132118Z 31001KT 18/M04 A2989 RMK A01 T01821042  RH  021%=      5-min Rain = 0
KPD1 132119Z 30003KT 18/M05 A2989 RMK A01 T01831048  RH  020%=      5-min Rain = 0
KPD1 132120Z 30003KT 18/M05 A2989 RMK A01 T01841054  RH  019%=      5-min Rain = 0
KPD1 132121Z 31003KT 18/M06 A2989 RMK A01 T01831056  RH  019%=      5-min Rain = 0
KPD1 132122Z 35002KT 18/M05 A2989 RMK A01 T01831054  RH  019%=      5-min Rain = 0
KPD1 132123Z 32001KT 18/M05 A2989 RMK A01 T01841050  RH  020%=      5-min Rain = 0
KPD1 132124Z 31002KT 19/M05 A2988 RMK A01 T01861049  RH  020%=      5-min Rain = 0
KPD1 132125Z 33002KT 19/M06 A2988 RMK A01 T01871058  RH  018%=      5-min Rain = 0
KPD1 132126Z 29002KT 19/M06 A2988 RMK A01 T01871057  RH  019%=      5-min Rain = 0
KPD1 132127Z 32002KT 19/M06 A2988 RMK A01 T01871055  RH  019%=      5-min Rain = 0
KPD1 132128Z 31002KT 19/M06 A2988 RMK A01 T01871055  RH  019%=      5-min Rain = 0
KPD1 132129Z 28004KT 19/M06 A2989 RMK A01 T01871058  RH  018%=      5-min Rain = 0
KPD1 132130Z 29004KT 19/M06 A2989 RMK A01 T01871060  RH  018%=      5-min Rain = 0
KPD1 132131Z 30005KT 19/M06 A2989 RMK A01 T01871064  RH  018%=      5-min Rain = 0
KPD1 132132Z 29004KT 19/M07 A2988 RMK A01 T01871066  RH  017%=      5-min Rain = 0
KPD1 132133Z 33003KT 19/M06 A2988 RMK A01 T01861063  RH  018%=      5-min Rain = 0
KPD1 132134Z 31003KT 19/M06 A2988 RMK A01 T01861063  RH  018%=      5-min Rain = 0
KPD1 132135Z 30002KT 19/M06 A2988 RMK A01 T01861064  RH  018%=      5-min Rain = 0
KPD1 132136Z 29001KT 19/M07 A2988 RMK A01 T01851065  RH  018%=      5-min Rain = 0
KPD1 132137Z 30002KT 19/M06 A2988 RMK A01 T01851061  RH  018%=      5-min Rain = 0
KPD1 132138Z 29002KT 19/M06 A2988 RMK A01 T01861062  RH  018%=      5-min Rain = 0
KPD1 132139Z 31003KT 19/M07 A2988 RMK A01 T01861067  RH  017%=      5-min Rain = 0
KPD1 132140Z 35003KT 19/M07 A2988 RMK A01 T01861065  RH  018%=      5-min Rain = 0
KPD1 132141Z 36003KT 19/M06 A2988 RMK A01 T01851064  RH  018%=      5-min Rain = 0
KPD1 132142Z 34004KT 19/M06 A2988 RMK A01 T01851061  RH  018%=      5-min Rain = 0
KPD1 132143Z 33004KT 18/M07 A2988 RMK A01 T01841065  RH  018%=      5-min Rain = 0
KPD1 132144Z 33004KT 18/M06 A2988 RMK A01 T01841063  RH  018%=      5-min Rain = 0
KPD1 132145Z 32004KT 18/M06 A2988 RMK A01 T01831062  RH  018%=      5-min Rain = 0
KPD1 132146Z 33004KT 18/M06 A2988 RMK A01 T01831061  RH  018%=      5-min Rain = 0
KPD1 132147Z 33005KT 18/M06 A2988 RMK A01 T01831064  RH  018%=      5-min Rain = 0
KPD1 132148Z 31004KT 18/M06 A2988 RMK A01 T01831064  RH  018%=      5-min Rain = 0
KPD1 132149Z 32002KT 18/M06 A2988 RMK A01 T01841063  RH  018%=      5-min Rain = 0
KPD1 132150Z 31003KT 19/M06 A2988 RMK A01 T01861058  RH  019%=      5-min Rain = 0
KPD1 132151Z 33002KT 19/M06 A2987 RMK A01 T01871060  RH  018%=      5-min Rain = 0
KPD1 132152Z 02001KT 19/M06 A2987 RMK A01 T01881056  RH  019%=      5-min Rain = 0
KPD1 132153Z 03000KT 19/M06 A2987 RMK A01 T01891062  RH  018%=      5-min Rain = 0
KPD1 132154Z 06001KT 19/M06 A2987 RMK A01 T01891055  RH  019%=      5-min Rain = 0
KPD1 132155Z 04002KT 19/M05 A2987 RMK A01 T01901050  RH  019%=      5-min Rain = 0
KPD1 132156Z 05002KT 19/M05 A2987 RMK A01 T01901052  RH  019%=      5-min Rain = 0
KPD1 132157Z 04002KT 19/M06 A2987 RMK A01 T01881056  RH  019%=      5-min Rain = 0
KPD1 132158Z 08001KT 19/M06 A2987 RMK A01 T01871056  RH  019%=      5-min Rain = 0
KPD1 132159Z 07002KT 19/M05 A2987 RMK A01 T01861054  RH  019%=      5-min Rain = 0
KPD1 132200Z 08002KT 19/M05 A2987 RMK A01 T01861054  RH  019%=      5-min Rain = 0
KPD1 132201Z 09001KT 19/M06 A2987 RMK A01 T01861056  RH  019%=      5-min Rain = 0
KPD1 132202Z 10000KT 19/M06 A2987 RMK A01 T01861057  RH  019%=      5-min Rain = 0
KPD1 132203Z 10000KT 19/M06 A2987 RMK A01 T01861057  RH  019%=      5-min Rain = 0
KPD1 132204Z 00000KT 19/M06 A2987 RMK A01 T01861059  RH  018%=      5-min Rain = 0
KPD1 132205Z 00000KT 19/M06 A2987 RMK A01 T01871060  RH  018%=      5-min Rain = 0
KPD1 132206Z 00000KT 19/M06 A2987 RMK A01 T01881059  RH  018%=      5-min Rain = 0
KPD1 132207Z 00000KT 19/M06 A2987 RMK A01 T01881061  RH  018%=      5-min Rain = 0
KPD1 132208Z 00000KT 19/M06 A2987 RMK A01 T01881061  RH  018%=      5-min Rain = 0
KPD1 132209Z 36001KT 19/M06 A2987 RMK A01 T01881059  RH  018%=      5-min Rain = 0
KPD1 132210Z 36001KT 19/M06 A2987 RMK A01 T01871061  RH  018%=      5-min Rain = 0
KPD1 132211Z 01001KT 19/M06 A2987 RMK A01 T01851064  RH  018%=      5-min Rain = 0
KPD1 132212Z 02001KT 18/M06 A2987 RMK A01 T01841061  RH  018%=      5-min Rain = 0
KPD1 132213Z 01000KT 18/M06 A2987 RMK A01 T01841059  RH  019%=      5-min Rain = 0
KPD1 132214Z 33000KT 18/M06 A2987 RMK A01 T01841062  RH  018%=      5-min Rain = 0
KPD1 132215Z 35000KT 18/M06 A2987 RMK A01 T01841061  RH  018%=      5-min Rain = 0
KPD1 132216Z 34000KT 18/M06 A2987 RMK A01 T01841060  RH  018%=      5-min Rain = 0
KPD1 132217Z 02000KT 18/M06 A2987 RMK A01 T01841062  RH  018%=      5-min Rain = 0
KPD1 132218Z 00000KT 19/M06 A2987 RMK A01 T01851064  RH  018%=      5-min Rain = 0
KPD1 132219Z 00000KT 19/M07 A2987 RMK A01 T01861066  RH  017%=      5-min Rain = 0
KPD1 132220Z 00000KT 19/M06 A2987 RMK A01 T01871064  RH  018%=      5-min Rain = 0
KPD1 132221Z 00000KT 19/M06 A2987 RMK A01 T01901061  RH  018%=      5-min Rain = 0
KPD1 132222Z 00000KT 19/M06 A2987 RMK A01 T01911059  RH  018%=      5-min Rain = 0
KPD1 132223Z 30000KT 19/M06 A2987 RMK A01 T01921062  RH  017%=      5-min Rain = 0
KPD1 132224Z 30001KT 19/M06 A2987 RMK A01 T01931061  RH  017%=      5-min Rain = 0
KPD1 132225Z 30001KT 19/M06 A2987 RMK A01 T01941063  RH  017%=      5-min Rain = 0
KPD1 132226Z 30000KT 19/M07 A2987 RMK A01 T01931067  RH  017%=      5-min Rain = 0
KPD1 132227Z 00000KT 19/M07 A2987 RMK A01 T01921065  RH  017%=      5-min Rain = 0
KPD1 132228Z 00000KT 19/M06 A2987 RMK A01 T01911064  RH  017%=      5-min Rain = 0
KPD1 132229Z 00000KT 19/M06 A2987 RMK A01 T01901064  RH  017%=      5-min Rain = 0
KPD1 132230Z 33001KT 19/M06 A2987 RMK A01 T01891063  RH  017%=      5-min Rain = 0
KPD1 132231Z 32002KT 19/M07 A2986 RMK A01 T01881066  RH  017%=      5-min Rain = 0
KPD1 132232Z 32001KT 19/M07 A2986 RMK A01 T01871066  RH  017%=      5-min Rain = 0
KPD1 132233Z 32001KT 19/M06 A2986 RMK A01 T01871064  RH  018%=      5-min Rain = 0
KPD1 132234Z 32001KT 19/M06 A2987 RMK A01 T01881062  RH  018%=      5-min Rain = 0
KPD1 132235Z 31001KT 19/M07 A2987 RMK A01 T01891066  RH  017%=      5-min Rain = 0
KPD1 132236Z 31001KT 19/M06 A2987 RMK A01 T01891064  RH  017%=      5-min Rain = 0
KPD1 132237Z 32001KT 19/M07 A2987 RMK A01 T01881066  RH  017%=      5-min Rain = 0
KPD1 132238Z 33001KT 19/M07 A2987 RMK A01 T01881066  RH  017%=      5-min Rain = 0
KPD1 132239Z 33001KT 19/M07 A2987 RMK A01 T01891065  RH  017%=      5-min Rain = 0
KPD1 132240Z 00000KT 19/M07 A2987 RMK A01 T01891065  RH  017%=      5-min Rain = 0
KPD1 132241Z 00000KT 19/M06 A2987 RMK A01 T01901063  RH  017%=      5-min Rain = 0
KPD1 132242Z 32001KT 19/M06 A2987 RMK A01 T01911064  RH  017%=      5-min Rain = 0
KPD1 132243Z 32001KT 19/M06 A2986 RMK A01 T01911064  RH  017%=      5-min Rain = 0
KPD1 132244Z 29001KT 19/M07 A2986 RMK A01 T01911066  RH  017%=      5-min Rain = 0
KPD1 132245Z 26000KT 19/M07 A2986 RMK A01 T01901065  RH  017%=      5-min Rain = 0
KPD1 132246Z 00000KT 19/M07 A2986 RMK A01 T01891068  RH  017%=      5-min Rain = 0
KPD1 132247Z 26000KT 19/M07 A2986 RMK A01 T01891070  RH  017%=      5-min Rain = 0
KPD1 132248Z 00000KT 19/M07 A2986 RMK A01 T01891069  RH  017%=      5-min Rain = 0
KPD1 132249Z 30000KT 19/M06 A2986 RMK A01 T01901064  RH  017%=      5-min Rain = 0
KPD1 132250Z 30001KT 19/M06 A2986 RMK A01 T01911063  RH  017%=      5-min Rain = 0
KPD1 132251Z 26001KT 19/M06 A2986 RMK A01 T01921062  RH  017%=      5-min Rain = 0
KPD1 132252Z 29001KT 19/M06 A2986 RMK A01 T01921062  RH  017%=      5-min Rain = 0
KPD1 132253Z 26001KT 19/M06 A2986 RMK A01 T01931062  RH  017%=      5-min Rain = 0
KPD1 132254Z 29000KT 19/M06 A2986 RMK A01 T01931064  RH  017%=      5-min Rain = 0
KPD1 132255Z 26000KT 19/M07 A2986 RMK A01 T01931065  RH  017%=      5-min Rain = 0
KPD1 132256Z 00000KT 19/M06 A2986 RMK A01 T01921063  RH  017%=      5-min Rain = 0
KPD1 132257Z 00000KT 19/M06 A2986 RMK A01 T01931064  RH  017%=      5-min Rain = 0
KPD1 132258Z 30001KT 19/M06 A2986 RMK A01 T01931064  RH  017%=      5-min Rain = 0
KPD1 132259Z 30002KT 19/M07 A2986 RMK A01 T01931069  RH  016%=      5-min Rain = 0
KPD1 132300Z 29002KT 19/M08 A2986 RMK A01 T01911077  RH  016%=      5-min Rain = 0
KPD1 132301Z 31002KT 19/M07 A2987 RMK A01 T01901074  RH  016%=      5-min Rain = 0
KPD1 132302Z 32002KT 19/M07 A2987 RMK A01 T01881072  RH  016%=      5-min Rain = 0
KPD1 132303Z 30002KT 19/M07 A2987 RMK A01 T01881070  RH  017%=      5-min Rain = 0
KPD1 132304Z 31001KT 19/M07 A2987 RMK A01 T01871068  RH  017%=      5-min Rain = 0
KPD1 132305Z 31002KT 19/M07 A2987 RMK A01 T01871068  RH  017%=      5-min Rain = 0
KPD1 132306Z 30003KT 19/M07 A2987 RMK A01 T01871068  RH  017%=      5-min Rain = 0
KPD1 132307Z 31002KT 19/M07 A2987 RMK A01 T01871073  RH  017%=      5-min Rain = 0
KPD1 132308Z 31002KT 19/M07 A2987 RMK A01 T01861073  RH  016%=      5-min Rain = 0
KPD1 132309Z 31003KT 19/M07 A2987 RMK A01 T01861074  RH  016%=      5-min Rain = 0
KPD1 132310Z 31004KT 19/M08 A2987 RMK A01 T01851078  RH  016%=      5-min Rain = 0
KPD1 132311Z 31004KT 18/M08 A2987 RMK A01 T01841080  RH  016%=      5-min Rain = 0
KPD1 132312Z 31004KT 18/M09 A2987 RMK A01 T01831086  RH  015%=      5-min Rain = 0
KPD1 132313Z 31003KT 18/M08 A2987 RMK A01 T01821084  RH  016%=      5-min Rain = 0
KPD1 132314Z 31004KT 18/M09 A2987 RMK A01 T01811086  RH  015%=      5-min Rain = 0
KPD1 132315Z 31003KT 18/M09 A2987 RMK A01 T01801089  RH  015%=      5-min Rain = 0
KPD1 132316Z 31003KT 18/M09 A2987 RMK A01 T01791090  RH  015%=      5-min Rain = 0
KPD1 132317Z 31004KT 18/M09 A2987 RMK A01 T01791089  RH  015%=      5-min Rain = 0
KPD1 132318Z 31004KT 18/M09 A2987 RMK A01 T01781088  RH  015%=      5-min Rain = 0
KPD1 132319Z 30004KT 18/M09 A2988 RMK A01 T01771088  RH  016%=      5-min Rain = 0
KPD1 132320Z 31003KT 18/M09 A2988 RMK A01 T01771086  RH  016%=      5-min Rain = 0
KPD1 132321Z 30004KT 18/M08 A2988 RMK A01 T01761083  RH  016%=      5-min Rain = 0
KPD1 132322Z 31004KT 18/M08 A2988 RMK A01 T01761079  RH  017%=      5-min Rain = 0
KPD1 132323Z 31004KT 18/M08 A2988 RMK A01 T01761076  RH  017%=      5-min Rain = 0
KPD1 132324Z 31005KT 18/M08 A2988 RMK A01 T01751079  RH  017%=      5-min Rain = 0
KPD1 132325Z 32005KT 17/M08 A2988 RMK A01 T01741082  RH  017%=      5-min Rain = 0
KPD1 132326Z 32004KT 17/M08 A2988 RMK A01 T01731083  RH  017%=      5-min Rain = 0
KPD1 132327Z 32005KT 17/M08 A2988 RMK A01 T01721082  RH  017%=      5-min Rain = 0
KPD1 132328Z 32005KT 17/M08 A2988 RMK A01 T01721081  RH  017%=      5-min Rain = 0
KPD1 132329Z 32005KT 17/M08 A2988 RMK A01 T01711079  RH  017%=      5-min Rain = 0
KPD1 132330Z 32005KT 17/M08 A2988 RMK A01 T01711077  RH  018%=      5-min Rain = 0
KPD1 132331Z 32005KT 17/M08 A2988 RMK A01 T01691077  RH  018%=      5-min Rain = 0
KPD1 132332Z 32005KT 17/M08 A2988 RMK A01 T01681078  RH  018%=      5-min Rain = 0
KPD1 132333Z 32005KT 17/M08 A2988 RMK A01 T01671079  RH  018%=      5-min Rain = 0
KPD1 132334Z 32005KT 17/M08 A2988 RMK A01 T01661079  RH  018%=      5-min Rain = 0
KPD1 132335Z 32005KT 17/M08 A2988 RMK A01 T01661079  RH  018%=      5-min Rain = 0
KPD1 132336Z 32005KT 17/M08 A2987 RMK A01 T01651079  RH  018%=      5-min Rain = 0
KPD1 132337Z 32005KT 17/M08 A2987 RMK A01 T01651077  RH  018%=      5-min Rain = 0
KPD1 132338Z 32005KT 16/M08 A2987 RMK A01 T01641076  RH  019%=      5-min Rain = 0
KPD1 132339Z 32005KT 16/M08 A2987 RMK A01 T01631075  RH  019%=      5-min Rain = 0
KPD1 132340Z 32005KT 16/M08 A2987 RMK A01 T01611075  RH  019%=      5-min Rain = 0
KPD1 132341Z 32005KT 16/M08 A2987 RMK A01 T01601075  RH  019%=      5-min Rain = 0
KPD1 132342Z 32005KT 16/M08 A2987 RMK A01 T01591075  RH  019%=      5-min Rain = 0
KPD1 132343Z 31005KT 16/M08 A2987 RMK A01 T01591075  RH  019%=      5-min Rain = 0
KPD1 132344Z 31005KT 16/M08 A2987 RMK A01 T01581076  RH  019%=      5-min Rain = 0
KPD1 132345Z 31005KT 16/M08 A2987 RMK A01 T01571076  RH  019%=      5-min Rain = 0
KPD1 132346Z 31006KT 16/M08 A2987 RMK A01 T01561076  RH  020%=      5-min Rain = 0
KPD1 132347Z 31005KT 16/M08 A2987 RMK A01 T01551077  RH  020%=      5-min Rain = 0
KPD1 132348Z 31006KT 15/M08 A2987 RMK A01 T01541077  RH  020%=      5-min Rain = 0
KPD1 132349Z 31006KT 15/M08 A2987 RMK A01 T01531077  RH  020%=      5-min Rain = 0
KPD1 132350Z 31006KT 15/M08 A2987 RMK A01 T01521078  RH  020%=      5-min Rain = 0
KPD1 132351Z 30006KT 15/M08 A2987 RMK A01 T01501079  RH  020%=      5-min Rain = 0
KPD1 132352Z 30006KT 15/M08 A2987 RMK A01 T01491080  RH  020%=      5-min Rain = 0
KPD1 132353Z 30006KT 15/M08 A2987 RMK A01 T01471082  RH  020%=      5-min Rain = 0
KPD1 132354Z 31006KT 15/M08 A2987 RMK A01 T01461083  RH  020%=      5-min Rain = 0
KPD1 132355Z 31006KT 15/M08 A2987 RMK A01 T01451084  RH  020%=      5-min Rain = 0
KPD1 132356Z 30007KT 14/M09 A2987 RMK A01 T01441085  RH  020%=      5-min Rain = 0
KPD1 132357Z 30007KT 14/M09 A2987 RMK A01 T01431086  RH  020%=      5-min Rain = 0
KPD1 132358Z 30007KT 14/M09 A2987 RMK A01 T01421087  RH  020%=      5-min Rain = 0
KPD1 132359Z 30007KT 14/M09 A2987 RMK A01 T01411088  RH  020%=      5-min Rain = 0
KPD1 140000Z 30006KT 14/M09 A2987 RMK A01 T01411089  RH  019%=      5-min Rain = 0
KPD1 140001Z 30006KT 14/M09 A2987 RMK A01 T01401090  RH  019%=      5-min Rain = 0
KPD1 140002Z 30007KT 14/M09 A2987 RMK A01 T01401090  RH  019%=      5-min Rain = 0
KPD1 140003Z 30007KT 14/M09 A2987 RMK A01 T01401090  RH  019%=      5-min Rain = 0
KPD1 140004Z 30006KT 14/M09 A2987 RMK A01 T01391090  RH  020%=      5-min Rain = 0
KPD1 140005Z 29005KT 14/M09 A2987 RMK A01 T01391090  RH  020%=      5-min Rain = 0
KPD1 140006Z 30005KT 14/M09 A2987 RMK A01 T01381089  RH  020%=      5-min Rain = 0
KPD1 140007Z 30005KT 14/M09 A2987 RMK A01 T01371091  RH  020%=      5-min Rain = 0
KPD1 140008Z 30006KT 14/M09 A2987 RMK A01 T01371091  RH  020%=      5-min Rain = 0
KPD1 140009Z 30006KT 14/M09 A2987 RMK A01 T01371092  RH  019%=      5-min Rain = 0
KPD1 140010Z 30005KT 14/M09 A2987 RMK A01 T01371092  RH  020%=      5-min Rain = 0
KPD1 140011Z 30005KT 14/M09 A2987 RMK A01 T01371093  RH  019%=      5-min Rain = 0
KPD1 140012Z 30006KT 14/M09 A2987 RMK A01 T01371093  RH  019%=      5-min Rain = 0
KPD1 140013Z 30006KT 14/M09 A2987 RMK A01 T01371093  RH  019%=      5-min Rain = 0
KPD1 140014Z 29005KT 14/M09 A2987 RMK A01 T01371093  RH  019%=      5-min Rain = 0
KPD1 140015Z 29005KT 14/M09 A2987 RMK A01 T01371092  RH  020%=      5-min Rain = 0
KPD1 140016Z 29004KT 14/M09 A2987 RMK A01 T01371091  RH  020%=      5-min Rain = 0
KPD1 140017Z 29005KT 14/M09 A2987 RMK A01 T01361090  RH  020%=      5-min Rain = 0
KPD1 140018Z 29005KT 14/M09 A2987 RMK A01 T01351089  RH  020%=      5-min Rain = 0
KPD1 140019Z 29005KT 13/M09 A2987 RMK A01 T01341088  RH  020%=      5-min Rain = 0
KPD1 140020Z 29005KT 13/M09 A2987 RMK A01 T01341088  RH  021%=      5-min Rain = 0
KPD1 140021Z 29005KT 13/M09 A2987 RMK A01 T01331087  RH  021%=      5-min Rain = 0
KPD1 140022Z 29005KT 13/M09 A2987 RMK A01 T01321086  RH  021%=      5-min Rain = 0
KPD1 140023Z 29005KT 13/M09 A2987 RMK A01 T01301085  RH  021%=      5-min Rain = 0
KPD1 140024Z 29005KT 13/M08 A2987 RMK A01 T01291083  RH  022%=      5-min Rain = 0
KPD1 140025Z 29006KT 13/M08 A2987 RMK A01 T01281082  RH  022%=      5-min Rain = 0
KPD1 140026Z 29006KT 13/M08 A2987 RMK A01 T01281081  RH  022%=      5-min Rain = 0
KPD1 140027Z 29006KT 13/M08 A2987 RMK A01 T01281079  RH  023%=      5-min Rain = 0
KPD1 140028Z 29006KT 13/M08 A2987 RMK A01 T01271078  RH  023%=      5-min Rain = 0
KPD1 140029Z 28006KT 13/M08 A2987 RMK A01 T01261076  RH  024%=      5-min Rain = 0
KPD1 140030Z 28005KT 13/M08 A2987 RMK A01 T01251075  RH  024%=      5-min Rain = 0
KPD1 140031Z 28005KT 12/M07 A2987 RMK A01 T01241074  RH  024%=      5-min Rain = 0
KPD1 140032Z 28005KT 12/M07 A2987 RMK A01 T01241074  RH  025%=      5-min Rain = 0
KPD1 140033Z 28005KT 12/M07 A2986 RMK A01 T01231073  RH  025%=      5-min Rain = 0
KPD1 140034Z 28005KT 12/M07 A2986 RMK A01 T01221074  RH  025%=      5-min Rain = 0
KPD1 140035Z 28005KT 12/M07 A2986 RMK A01 T01221073  RH  025%=      5-min Rain = 0
KPD1 140036Z 28005KT 12/M07 A2986 RMK A01 T01221073  RH  025%=      5-min Rain = 0
KPD1 140037Z 28005KT 12/M07 A2986 RMK A01 T01211073  RH  025%=      5-min Rain = 0
KPD1 140038Z 28004KT 12/M07 A2986 RMK A01 T01201072  RH  025%=      5-min Rain = 0
KPD1 140039Z 28004KT 12/M07 A2986 RMK A01 T01191071  RH  026%=      5-min Rain = 0
KPD1 140040Z 27004KT 12/M07 A2986 RMK A01 T01191069  RH  026%=      5-min Rain = 0
KPD1 140041Z 28004KT 12/M07 A2986 RMK A01 T01191068  RH  026%=      5-min Rain = 0
KPD1 140042Z 28004KT 12/M07 A2986 RMK A01 T01181067  RH  027%=      5-min Rain = 0
KPD1 140043Z 28004KT 12/M07 A2986 RMK A01 T01171068  RH  027%=      5-min Rain = 0
KPD1 140044Z 28004KT 12/M07 A2986 RMK A01 T01171069  RH  027%=      5-min Rain = 0
KPD1 140045Z 29004KT 12/M07 A2986 RMK A01 T01171069  RH  027%=      5-min Rain = 0
KPD1 140046Z 30002KT 12/M07 A2986 RMK A01 T01161070  RH  026%=      5-min Rain = 0
KPD1 140047Z 04001KT 12/M07 A2986 RMK A01 T01161073  RH  026%=      5-min Rain = 0
KPD1 140048Z 03001KT 12/M07 A2986 RMK A01 T01191074  RH  025%=      5-min Rain = 0
KPD1 140049Z 01001KT 12/M08 A2986 RMK A01 T01211077  RH  024%=      5-min Rain = 0
KPD1 140050Z 07000KT 12/M08 A2986 RMK A01 T01231077  RH  024%=      5-min Rain = 0
KPD1 140051Z 11001KT 12/M08 A2986 RMK A01 T01241079  RH  024%=      5-min Rain = 0
KPD1 140052Z 12000KT 12/M08 A2986 RMK A01 T01241080  RH  023%=      5-min Rain = 0
KPD1 140053Z 16001KT 12/M08 A2986 RMK A01 T01241082  RH  023%=      5-min Rain = 0
KPD1 140054Z 15001KT 13/M08 A2986 RMK A01 T01251083  RH  023%=      5-min Rain = 0
KPD1 140055Z 14001KT 13/M08 A2986 RMK A01 T01251084  RH  022%=      5-min Rain = 0
KPD1 140056Z 14001KT 13/M08 A2986 RMK A01 T01261083  RH  022%=      5-min Rain = 0
KPD1 140057Z 15001KT 13/M08 A2986 RMK A01 T01261084  RH  022%=      5-min Rain = 0
KPD1 140058Z 15002KT 13/M09 A2986 RMK A01 T01261085  RH  022%=      5-min Rain = 0
KPD1 140059Z 17002KT 12/M08 A2985 RMK A01 T01241081  RH  023%=      5-min Rain = 0
KPD1 140100Z 18002KT 12/M08 A2985 RMK A01 T01221080  RH  024%=      5-min Rain = 0
KPD1 140101Z 17000KT 12/M08 A2985 RMK A01 T01201080  RH  024%=      5-min Rain = 0
KPD1 140102Z 20001KT 12/M08 A2985 RMK A01 T01211080  RH  024%=      5-min Rain = 0
KPD1 140103Z 21002KT 12/M08 A2985 RMK A01 T01211079  RH  024%=      5-min Rain = 0
KPD1 140104Z 20002KT 12/M08 A2985 RMK A01 T01181077  RH  025%=      5-min Rain = 0
KPD1 140105Z 18001KT 12/M08 A2985 RMK A01 T01161077  RH  025%=      5-min Rain = 0
KPD1 140106Z 17001KT 11/M08 A2985 RMK A01 T01141080  RH  025%=      5-min Rain = 0
KPD1 140107Z 16001KT 11/M08 A2985 RMK A01 T01141082  RH  025%=      5-min Rain = 0
KPD1 140108Z 14001KT 12/M08 A2985 RMK A01 T01151081  RH  025%=      5-min Rain = 0
KPD1 140109Z 13001KT 11/M08 A2985 RMK A01 T01141082  RH  024%=      5-min Rain = 0
KPD1 140110Z 14001KT 11/M08 A2985 RMK A01 T01131083  RH  024%=      5-min Rain = 0
KPD1 140111Z 14000KT 11/M08 A2985 RMK A01 T01121082  RH  025%=      5-min Rain = 0
KPD1 140112Z 00000KT 11/M08 A2985 RMK A01 T01131081  RH  025%=      5-min Rain = 0
KPD1 140113Z 14001KT 11/M08 A2985 RMK A01 T01141079  RH  025%=      5-min Rain = 0
KPD1 140114Z 13001KT 12/M08 A2985 RMK A01 T01151079  RH  025%=      5-min Rain = 0
KPD1 140115Z 13001KT 12/M08 A2985 RMK A01 T01151079  RH  025%=      5-min Rain = 0
KPD1 140116Z 13001KT 12/M08 A2985 RMK A01 T01151078  RH  025%=      5-min Rain = 0
KPD1 140117Z 15001KT 12/M08 A2985 RMK A01 T01151078  RH  025%=      5-min Rain = 0
KPD1 140118Z 15000KT 12/M08 A2985 RMK A01 T01171078  RH  025%=      5-min Rain = 0
KPD1 140119Z 00000KT 12/M08 A2985 RMK A01 T01171078  RH  025%=      5-min Rain = 0
KPD1 140120Z 00000KT 12/M08 A2985 RMK A01 T01161079  RH  025%=      5-min Rain = 0
KPD1 140121Z 00000KT 12/M08 A2985 RMK A01 T01161079  RH  025%=      5-min Rain = 0
KPD1 140122Z 00000KT 12/M08 A2985 RMK A01 T01151080  RH  025%=      5-min Rain = 0
KPD1 140123Z 00000KT 12/M08 A2985 RMK A01 T01151080  RH  025%=      5-min Rain = 0
KPD1 140124Z 00000KT 12/M08 A2985 RMK A01 T01161080  RH  025%=      5-min Rain = 0
KPD1 140125Z 00000KT 12/M08 A2985 RMK A01 T01161081  RH  024%=      5-min Rain = 0
KPD1 140126Z 00000KT 12/M08 A2985 RMK A01 T01171080  RH  024%=      5-min Rain = 0
KPD1 140127Z 00000KT 12/M08 A2985 RMK A01 T01181080  RH  024%=      5-min Rain = 0
KPD1 140128Z 25000KT 12/M08 A2985 RMK A01 T01191080  RH  024%=      5-min Rain = 0
KPD1 140129Z 26001KT 12/M08 A2985 RMK A01 T01191080  RH  024%=      5-min Rain = 0
KPD1 140130Z 26001KT 12/M08 A2985 RMK A01 T01201081  RH  024%=      5-min Rain = 0
KPD1 140131Z 26001KT 12/M08 A2985 RMK A01 T01201082  RH  024%=      5-min Rain = 0
KPD1 140132Z 26001KT 12/M08 A2985 RMK A01 T01201082  RH  024%=      5-min Rain = 0
KPD1 140133Z 26001KT 12/M08 A2985 RMK A01 T01181082  RH  024%=      5-min Rain = 0
KPD1 140134Z 25001KT 12/M08 A2985 RMK A01 T01161083  RH  024%=      5-min Rain = 0
KPD1 140135Z 24001KT 11/M08 A2986 RMK A01 T01141083  RH  024%=      5-min Rain = 0
KPD1 140136Z 25002KT 11/M08 A2986 RMK A01 T01131083  RH  024%=      5-min Rain = 0
KPD1 140137Z 24002KT 11/M08 A2986 RMK A01 T01131084  RH  024%=      5-min Rain = 0
KPD1 140138Z 24002KT 11/M08 A2986 RMK A01 T01131084  RH  024%=      5-min Rain = 0
KPD1 140139Z 24002KT 11/M08 A2986 RMK A01 T01141084  RH  024%=      5-min Rain = 0
KPD1 140140Z 25003KT 11/M08 A2986 RMK A01 T01141084  RH  024%=      5-min Rain = 0
KPD1 140141Z 25003KT 11/M08 A2986 RMK A01 T01141084  RH  024%=      5-min Rain = 0
KPD1 140142Z 25003KT 12/M08 A2986 RMK A01 T01151083  RH  024%=      5-min Rain = 0
KPD1 140143Z 25003KT 12/M08 A2986 RMK A01 T01151083  RH  024%=      5-min Rain = 0
KPD1 140144Z 25003KT 12/M08 A2986 RMK A01 T01151083  RH  024%=      5-min Rain = 0
KPD1 140145Z 25003KT 11/M08 A2986 RMK A01 T01141082  RH  025%=      5-min Rain = 0
KPD1 140146Z 25003KT 11/M08 A2986 RMK A01 T01131081  RH  025%=      5-min Rain = 0
KPD1 140147Z 26003KT 11/M08 A2986 RMK A01 T01121081  RH  025%=      5-min Rain = 0
KPD1 140148Z 24003KT 11/M08 A2986 RMK A01 T01111082  RH  025%=      5-min Rain = 0
KPD1 140149Z 25004KT 11/M08 A2986 RMK A01 T01101083  RH  025%=      5-min Rain = 0
KPD1 140150Z 25004KT 11/M08 A2986 RMK A01 T01091083  RH  025%=      5-min Rain = 0
KPD1 140151Z 25004KT 11/M09 A2986 RMK A01 T01091089  RH  024%=      5-min Rain = 0
KPD1 140152Z 24003KT 11/M09 A2986 RMK A01 T01111092  RH  023%=      5-min Rain = 0
KPD1 140153Z 26003KT 11/M09 A2986 RMK A01 T01111093  RH  023%=      5-min Rain = 0
KPD1 140154Z 25003KT 11/M09 A2986 RMK A01 T01111093  RH  023%=      5-min Rain = 0
KPD1 140155Z 27003KT 11/M09 A2986 RMK A01 T01111092  RH  023%=      5-min Rain = 0
KPD1 140156Z 27004KT 11/M09 A2986 RMK A01 T01101089  RH  024%=      5-min Rain = 0
KPD1 140157Z 28005KT 11/M09 A2986 RMK A01 T01071089  RH  024%=      5-min Rain = 0
KPD1 140158Z 28007KT 11/M09 A2986 RMK A01 T01051088  RH  025%=      5-min Rain = 0
KPD1 140159Z 28008KT 10/M09 A2986 RMK A01 T01021087  RH  025%=      5-min Rain = 0
KPD1 140200Z 27008KT 10/M09 A2986 RMK A01 T01001086  RH  026%=      5-min Rain = 0
KPD1 140201Z 28008KT 10/M08 A2986 RMK A01 T01001084  RH  027%=      5-min Rain = 0
KPD1 140202Z 28008KT 10/M08 A2986 RMK A01 T00991082  RH  027%=      5-min Rain = 0
KPD1 140203Z 27008KT 10/M08 A2986 RMK A01 T00991081  RH  027%=      5-min Rain = 0
KPD1 140204Z 27008KT 10/M08 A2986 RMK A01 T00991079  RH  028%=      5-min Rain = 0
KPD1 140205Z 27007KT 10/M08 A2986 RMK A01 T00991078  RH  028%=      5-min Rain = 0
KPD1 140206Z 27007KT 10/M08 A2986 RMK A01 T00981078  RH  028%=      5-min Rain = 0
KPD1 140207Z 26006KT 10/M08 A2986 RMK A01 T00981078  RH  028%=      5-min Rain = 0
KPD1 140208Z 25003KT 10/M08 A2986 RMK A01 T00981077  RH  028%=      5-min Rain = 0
KPD1 140209Z 22003KT 10/M08 A2986 RMK A01 T00961078  RH  029%=      5-min Rain = 0
KPD1 140210Z 22004KT 09/M08 A2986 RMK A01 T00921078  RH  029%=      5-min Rain = 0
KPD1 140211Z 22004KT 09/M08 A2986 RMK A01 T00881078  RH  030%=      5-min Rain = 0
KPD1 140212Z 22005KT 09/M08 A2986 RMK A01 T00851077  RH  031%=      5-min Rain = 0
KPD1 140213Z 23005KT 08/M08 A2986 RMK A01 T00841075  RH  032%=      5-min Rain = 0
KPD1 140214Z 24005KT 08/M07 A2986 RMK A01 T00831073  RH  032%=      5-min Rain = 0
KPD1 140215Z 25004KT 08/M07 A2986 RMK A01 T00821072  RH  033%=      5-min Rain = 0
KPD1 140216Z 26005KT 08/M07 A2986 RMK A01 T00821072  RH  033%=      5-min Rain = 0
KPD1 140217Z 26006KT 08/M07 A2986 RMK A01 T00821071  RH  033%=      5-min Rain = 0
KPD1 140218Z 27006KT 08/M07 A2986 RMK A01 T00821070  RH  033%=      5-min Rain = 0
KPD1 140219Z 27007KT 08/M07 A2986 RMK A01 T00811070  RH  034%=      5-min Rain = 0
KPD1 140220Z 27007KT 08/M07 A2986 RMK A01 T00801069  RH  034%=      5-min Rain = 0
KPD1 140221Z 27007KT 08/M07 A2986 RMK A01 T00801068  RH  034%=      5-min Rain = 0
KPD1 140222Z 27007KT 08/M07 A2986 RMK A01 T00801066  RH  035%=      5-min Rain = 0
KPD1 140223Z 27008KT 08/M06 A2986 RMK A01 T00801064  RH  035%=      5-min Rain = 0
KPD1 140224Z 27007KT 08/M06 A2986 RMK A01 T00801063  RH  036%=      5-min Rain = 0
KPD1 140225Z 27008KT 08/M06 A2986 RMK A01 T00811063  RH  036%=      5-min Rain = 0
KPD1 140226Z 27008KT 08/M06 A2986 RMK A01 T00821063  RH  035%=      5-min Rain = 0
KPD1 140227Z 27008KT 08/M06 A2986 RMK A01 T00821063  RH  035%=      5-min Rain = 0
KPD1 140228Z 27008KT 08/M06 A2986 RMK A01 T00831064  RH  035%=      5-min Rain = 0
KPD1 140229Z 28008KT 08/M06 A2986 RMK A01 T00841064  RH  034%=      5-min Rain = 0
KPD1 140230Z 27008KT 09/M07 A2986 RMK A01 T00851066  RH  034%=      5-min Rain = 0
KPD1 140231Z 28009KT 09/M07 A2986 RMK A01 T00861066  RH  033%=      5-min Rain = 0
KPD1 140232Z 27009KT 09/M07 A2986 RMK A01 T00861068  RH  033%=      5-min Rain = 0
KPD1 140233Z 27009KT 09/M07 A2986 RMK A01 T00861068  RH  033%=      5-min Rain = 0
KPD1 140234Z 27009KT 09/M07 A2986 RMK A01 T00861069  RH  033%=      5-min Rain = 0
KPD1 140235Z 27008KT 09/M07 A2986 RMK A01 T00871070  RH  032%=      5-min Rain = 0
KPD1 140236Z 27008KT 09/M07 A2986 RMK A01 T00881070  RH  032%=      5-min Rain = 0
KPD1 140237Z 27008KT 09/M07 A2986 RMK A01 T00881070  RH  032%=      5-min Rain = 0
KPD1 140238Z 27008KT 09/M07 A2986 RMK A01 T00881070  RH  032%=      5-min Rain = 0
KPD1 140239Z 27009KT 09/M07 A2986 RMK A01 T00881070  RH  032%=      5-min Rain = 0
KPD1 140240Z 27008KT 09/M07 A2986 RMK A01 T00891069  RH  032%=      5-min Rain = 0
KPD1 140241Z 27009KT 09/M07 A2986 RMK A01 T00881070  RH  032%=      5-min Rain = 0
KPD1 140242Z 27009KT 09/M07 A2986 RMK A01 T00881070  RH  032%=      5-min Rain = 0
KPD1 140243Z 27008KT 09/M07 A2986 RMK A01 T00891070  RH  032%=      5-min Rain = 0
KPD1 140244Z 28009KT 09/M07 A2986 RMK A01 T00891070  RH  032%=      5-min Rain = 0
KPD1 140245Z 27008KT 09/M07 A2986 RMK A01 T00891071  RH  032%=      5-min Rain = 0
KPD1 140246Z 28008KT 09/M07 A2986 RMK A01 T00901071  RH  031%=      5-min Rain = 0
KPD1 140247Z 27008KT 09/M07 A2986 RMK A01 T00911071  RH  031%=      5-min Rain = 0
KPD1 140248Z 28008KT 09/M07 A2986 RMK A01 T00921071  RH  031%=      5-min Rain = 0
KPD1 140249Z 28008KT 09/M07 A2986 RMK A01 T00921071  RH  031%=      5-min Rain = 0
KPD1 140250Z 28009KT 09/M07 A2986 RMK A01 T00921072  RH  031%=      5-min Rain = 0
KPD1 140251Z 28009KT 09/M07 A2986 RMK A01 T00921072  RH  031%=      5-min Rain = 0
KPD1 140252Z 28008KT 09/M07 A2986 RMK A01 T00931072  RH  030%=      5-min Rain = 0
KPD1 140253Z 28008KT 09/M07 A2986 RMK A01 T00931072  RH  030%=      5-min Rain = 0
KPD1 140254Z 28008KT 09/M07 A2986 RMK A01 T00931072  RH  030%=      5-min Rain = 0
KPD1 140255Z 28008KT 09/M07 A2986 RMK A01 T00931072  RH  031%=      5-min Rain = 0
KPD1 140256Z 28008KT 09/M07 A2985 RMK A01 T00931071  RH  031%=      5-min Rain = 0
KPD1 140257Z 28008KT 09/M07 A2985 RMK A01 T00931071  RH  031%=      5-min Rain = 0
KPD1 140258Z 28007KT 09/M07 A2985 RMK A01 T00931072  RH  031%=      5-min Rain = 0
KPD1 140259Z 27007KT 09/M07 A2985 RMK A01 T00931073  RH  030%=      5-min Rain = 0
KPD1 140300Z 27007KT 09/M07 A2985 RMK A01 T00931074  RH  030%=      5-min Rain = 0
KPD1 140301Z 27006KT 09/M07 A2985 RMK A01 T00931074  RH  030%=      5-min Rain = 0
KPD1 140302Z 27006KT 09/M08 A2985 RMK A01 T00931075  RH  030%=      5-min Rain = 0
KPD1 140303Z 26003KT 09/M07 A2985 RMK A01 T00931074  RH  030%=      5-min Rain = 0
KPD1 140304Z 23001KT 09/M08 A2985 RMK A01 T00921075  RH  030%=      5-min Rain = 0
KPD1 140305Z 23002KT 09/M07 A2985 RMK A01 T00901074  RH  030%=      5-min Rain = 0
KPD1 140306Z 24003KT 09/M07 A2985 RMK A01 T00881073  RH  031%=      5-min Rain = 0
KPD1 140307Z 25004KT 09/M07 A2985 RMK A01 T00861073  RH  032%=      5-min Rain = 0
KPD1 140308Z 25004KT 08/M07 A2985 RMK A01 T00841072  RH  032%=      5-min Rain = 0
KPD1 140309Z 25004KT 08/M07 A2985 RMK A01 T00821072  RH  033%=      5-min Rain = 0
KPD1 140310Z 25005KT 08/M07 A2985 RMK A01 T00801072  RH  033%=      5-min Rain = 0
KPD1 140311Z 25005KT 08/M07 A2985 RMK A01 T00791070  RH  034%=      5-min Rain = 0
KPD1 140312Z 24005KT 08/M07 A2985 RMK A01 T00771070  RH  035%=      5-min Rain = 0
KPD1 140313Z 24005KT 08/M07 A2985 RMK A01 T00761069  RH  035%=      5-min Rain = 0
KPD1 140314Z 24005KT 08/M07 A2985 RMK A01 T00751068  RH  035%=      5-min Rain = 0
KPD1 140315Z 24005KT 08/M07 A2985 RMK A01 T00751068  RH  036%=      5-min Rain = 0
KPD1 140316Z 24006KT 08/M07 A2986 RMK A01 T00751068  RH  036%=      5-min Rain = 0
KPD1 140317Z 24005KT 08/M07 A2986 RMK A01 T00751068  RH  036%=      5-min Rain = 0
KPD1 140318Z 24005KT 07/M07 A2986 RMK A01 T00741067  RH  036%=      5-min Rain = 0
KPD1 140319Z 25005KT 07/M07 A2986 RMK A01 T00741066  RH  036%=      5-min Rain = 0
KPD1 140320Z 26005KT 07/M07 A2986 RMK A01 T00731066  RH  037%=      5-min Rain = 0
KPD1 140321Z 27005KT 07/M07 A2986 RMK A01 T00721065  RH  037%=      5-min Rain = 0
KPD1 140322Z 28006KT 07/M06 A2986 RMK A01 T00711064  RH  038%=      5-min Rain = 0
KPD1 140323Z 28007KT 07/M06 A2985 RMK A01 T00711064  RH  038%=      5-min Rain = 0
KPD1 140324Z 28008KT 07/M06 A2985 RMK A01 T00711063  RH  038%=      5-min Rain = 0
KPD1 140325Z 28009KT 07/M06 A2985 RMK A01 T00711063  RH  038%=      5-min Rain = 0
KPD1 140326Z 28009KT 07/M06 A2985 RMK A01 T00731062  RH  038%=      5-min Rain = 0
KPD1 140327Z 28009KT 08/M06 A2985 RMK A01 T00751061  RH  037%=      5-min Rain = 0
KPD1 140328Z 28009KT 08/M06 A2985 RMK A01 T00781061  RH  037%=      5-min Rain = 0
KPD1 140329Z 28009KT 08/M06 A2985 RMK A01 T00811062  RH  036%=      5-min Rain = 0
KPD1 140330Z 28010KT 08/M06 A2985 RMK A01 T00821063  RH  035%=      5-min Rain = 0
KPD1 140331Z 28009KT 08/M06 A2985 RMK A01 T00821063  RH  035%=      5-min Rain = 0
KPD1 140332Z 28009KT 08/M06 A2986 RMK A01 T00821062  RH  035%=      5-min Rain = 0
KPD1 140333Z 28010KT 08/M06 A2986 RMK A01 T00811061  RH  036%=      5-min Rain = 0
KPD1 140334Z 28010KT 08/M06 A2986 RMK A01 T00811061  RH  036%=      5-min Rain = 0
KPD1 140335Z 28009KT 08/M06 A2986 RMK A01 T00801061  RH  036%=      5-min Rain = 0
KPD1 140336Z 28009KT 08/M06 A2986 RMK A01 T00811060  RH  036%=      5-min Rain = 0
KPD1 140337Z 28010KT 08/M06 A2986 RMK A01 T00821058  RH  036%=      5-min Rain = 0
KPD1 140338Z 28010KT 08/M06 A2986 RMK A01 T00841057  RH  037%=      5-min Rain = 0
KPD1 140339Z 28009KT 09/M05 A2986 RMK A01 T00861054  RH  037%=      5-min Rain = 0
KPD1 140340Z 28009KT 09/M05 A2986 RMK A01 T00871054  RH  036%=      5-min Rain = 0
KPD1 140341Z 28009KT 09/M05 A2986 RMK A01 T00871054  RH  036%=      5-min Rain = 0
KPD1 140342Z 28009KT 09/M05 A2986 RMK A01 T00881054  RH  036%=      5-min Rain = 0
KPD1 140343Z 28009KT 09/M06 A2985 RMK A01 T00881055  RH  036%=      5-min Rain = 0
KPD1 140344Z 28008KT 09/M06 A2985 RMK A01 T00891055  RH  036%=      5-min Rain = 0
KPD1 140345Z 28009KT 09/M06 A2985 RMK A01 T00891055  RH  036%=      5-min Rain = 0
KPD1 140346Z 28008KT 09/M06 A2985 RMK A01 T00891055  RH  036%=      5-min Rain = 0
KPD1 140347Z 28008KT 09/M06 A2985 RMK A01 T00891055  RH  036%=      5-min Rain = 0
KPD1 140348Z 28008KT 09/M05 A2985 RMK A01 T00881054  RH  036%=      5-min Rain = 0
KPD1 140349Z 28008KT 09/M05 A2985 RMK A01 T00871054  RH  036%=      5-min Rain = 0
KPD1 140350Z 28008KT 09/M06 A2985 RMK A01 T00851055  RH  037%=      5-min Rain = 0
KPD1 140351Z 28009KT 09/M06 A2985 RMK A01 T00851055  RH  037%=      5-min Rain = 0
KPD1 140352Z 28009KT 09/M05 A2985 RMK A01 T00851054  RH  037%=      5-min Rain = 0
KPD1 140353Z 28009KT 09/M05 A2984 RMK A01 T00851054  RH  037%=      5-min Rain = 0
KPD1 140354Z 28008KT 09/M05 A2984 RMK A01 T00851054  RH  037%=      5-min Rain = 0
KPD1 140355Z 27007KT 09/M05 A2984 RMK A01 T00851054  RH  037%=      5-min Rain = 0
KPD1 140356Z 28007KT 09/M05 A2984 RMK A01 T00851054  RH  037%=      5-min Rain = 0
KPD1 140357Z 28006KT 09/M05 A2984 RMK A01 T00861054  RH  037%=      5-min Rain = 0
KPD1 140358Z 28006KT 09/M05 A2984 RMK A01 T00861053  RH  037%=      5-min Rain = 0
KPD1 140359Z 29006KT 09/M05 A2984 RMK A01 T00861052  RH  037%=      5-min Rain = 0
KPD1 140400Z 30006KT 09/M05 A2984 RMK A01 T00861051  RH  037%=      5-min Rain = 0
KPD1 140401Z 31006KT 09/M05 A2984 RMK A01 T00861052  RH  037%=      5-min Rain = 0
KPD1 140402Z 31005KT 09/M05 A2984 RMK A01 T00861052  RH  037%=      5-min Rain = 0
KPD1 140403Z 31005KT 09/M05 A2984 RMK A01 T00861051  RH  037%=      5-min Rain = 0
KPD1 140404Z 31005KT 09/M05 A2984 RMK A01 T00851051  RH  038%=      5-min Rain = 0
KPD1 140405Z 30005KT 08/M05 A2984 RMK A01 T00841051  RH  038%=      5-min Rain = 0
KPD1 140406Z 30004KT 08/M05 A2984 RMK A01 T00831051  RH  038%=      5-min Rain = 0
KPD1 140407Z 29004KT 08/M05 A2984 RMK A01 T00821051  RH  039%=      5-min Rain = 0
KPD1 140408Z 29004KT 08/M05 A2984 RMK A01 T00811051  RH  039%=      5-min Rain = 0
KPD1 140409Z 29003KT 08/M05 A2984 RMK A01 T00811050  RH  039%=      5-min Rain = 0
KPD1 140410Z 28004KT 08/M05 A2984 RMK A01 T00801050  RH  039%=      5-min Rain = 0
KPD1 140411Z 27004KT 08/M05 A2984 RMK A01 T00791050  RH  040%=      5-min Rain = 0
KPD1 140412Z 25003KT 08/M05 A2983 RMK A01 T00791049  RH  040%=      5-min Rain = 0
KPD1 140413Z 24004KT 08/M05 A2983 RMK A01 T00781049  RH  040%=      5-min Rain = 0
KPD1 140414Z 24004KT 08/M05 A2983 RMK A01 T00771048  RH  041%=      5-min Rain = 0
KPD1 140415Z 25004KT 08/M05 A2983 RMK A01 T00771048  RH  041%=      5-min Rain = 0
KPD1 140416Z 24003KT 08/M05 A2983 RMK A01 T00761048  RH  041%=      5-min Rain = 0
KPD1 140417Z 24004KT 08/M05 A2983 RMK A01 T00761047  RH  041%=      5-min Rain = 0
KPD1 140418Z 23004KT 08/M05 A2983 RMK A01 T00761047  RH  041%=      5-min Rain = 0
KPD1 140419Z 24004KT 08/M05 A2983 RMK A01 T00761047  RH  041%=      5-min Rain = 0
KPD1 140420Z 24004KT 08/M05 A2983 RMK A01 T00761046  RH  042%=      5-min Rain = 0
KPD1 140421Z 25003KT 08/M05 A2983 RMK A01 T00751046  RH  042%=      5-min Rain = 0
KPD1 140422Z 24004KT 08/M05 A2983 RMK A01 T00761045  RH  042%=      5-min Rain = 0
KPD1 140423Z 25003KT 08/M05 A2983 RMK A01 T00761045  RH  042%=      5-min Rain = 0
KPD1 140424Z 26004KT 08/M05 A2983 RMK A01 T00751045  RH  042%=      5-min Rain = 0
KPD1 140425Z 26005KT 07/M05 A2983 RMK A01 T00741045  RH  043%=      5-min Rain = 0
KPD1 140426Z 26005KT 07/M04 A2983 RMK A01 T00741044  RH  043%=      5-min Rain = 0
KPD1 140427Z 26005KT 07/M04 A2983 RMK A01 T00731042  RH  044%=      5-min Rain = 0
KPD1 140428Z 26005KT 07/M04 A2983 RMK A01 T00731041  RH  044%=      5-min Rain = 0
KPD1 140429Z 26006KT 07/M04 A2983 RMK A01 T00731041  RH  044%=      5-min Rain = 0
KPD1 140430Z 26006KT 07/M04 A2983 RMK A01 T00731041  RH  044%=      5-min Rain = 0
KPD1 140431Z 27006KT 07/M04 A2983 RMK A01 T00731040  RH  045%=      5-min Rain = 0
KPD1 140432Z 28007KT 07/M04 A2983 RMK A01 T00731039  RH  045%=      5-min Rain = 0
KPD1 140433Z 29007KT 07/M04 A2983 RMK A01 T00741037  RH  045%=      5-min Rain = 0
KPD1 140434Z 30006KT 08/M04 A2984 RMK A01 T00761035  RH  045%=      5-min Rain = 0
KPD1 140435Z 31006KT 08/M03 A2984 RMK A01 T00771034  RH  045%=      5-min Rain = 0
KPD1 140436Z 33006KT 08/M03 A2984 RMK A01 T00781033  RH  045%=      5-min Rain = 0
KPD1 140437Z 35005KT 08/M03 A2984 RMK A01 T00781034  RH  045%=      5-min Rain = 0
KPD1 140438Z 36005KT 08/M03 A2984 RMK A01 T00761034  RH  045%=      5-min Rain = 0
KPD1 140439Z 35005KT 07/M04 A2984 RMK A01 T00731037  RH  046%=      5-min Rain = 0
KPD1 140440Z 34005KT 07/M04 A2984 RMK A01 T00711038  RH  046%=      5-min Rain = 0
KPD1 140441Z 32005KT 07/M04 A2984 RMK A01 T00711038  RH  046%=      5-min Rain = 0
KPD1 140442Z 30006KT 07/M04 A2984 RMK A01 T00701037  RH  046%=      5-min Rain = 0
KPD1 140443Z 29007KT 07/M03 A2984 RMK A01 T00711034  RH  047%=      5-min Rain = 0
KPD1 140444Z 29008KT 07/M03 A2984 RMK A01 T00741031  RH  047%=      5-min Rain = 0
KPD1 140445Z 29009KT 08/M03 A2984 RMK A01 T00751030  RH  047%=      5-min Rain = 0
KPD1 140446Z 29009KT 08/M03 A2984 RMK A01 T00761030  RH  047%=      5-min Rain = 0
KPD1 140447Z 29010KT 08/M03 A2984 RMK A01 T00751031  RH  047%=      5-min Rain = 0
KPD1 140448Z 29010KT 08/M03 A2984 RMK A01 T00751031  RH  047%=      5-min Rain = 0
KPD1 140449Z 28011KT 08/M03 A2984 RMK A01 T00761031  RH  047%=      5-min Rain = 0
KPD1 140450Z 28011KT 08/M03 A2984 RMK A01 T00771030  RH  047%=      5-min Rain = 0
KPD1 140451Z 28010KT 08/M03 A2984 RMK A01 T00771031  RH  046%=      5-min Rain = 0
KPD1 140452Z 28010KT 08/M03 A2984 RMK A01 T00771031  RH  046%=      5-min Rain = 0
KPD1 140453Z 29009KT 08/M03 A2984 RMK A01 T00761030  RH  047%=      5-min Rain = 0
KPD1 140454Z 29010KT 07/M03 A2984 RMK A01 T00741031  RH  047%=      5-min Rain = 0
KPD1 140455Z 28011KT 07/M03 A2984 RMK A01 T00731030  RH  048%=      5-min Rain = 0
KPD1 140456Z 28010KT 07/M03 A2984 RMK A01 T00711028  RH  049%=      5-min Rain = 0
KPD1 140457Z 28010KT 07/M03 A2984 RMK A01 T00711027  RH  050%=      5-min Rain = 0
KPD1 140458Z 28009KT 07/M03 A2984 RMK A01 T00701027  RH  050%=      5-min Rain = 0
KPD1 140459Z 28008KT 07/M03 A2984 RMK A01 T00701027  RH  050%=      5-min Rain = 0
KPD1 140500Z 27009KT 07/M03 A2983 RMK A01 T00691027  RH  050%=      5-min Rain = 0
KPD1 140501Z 27008KT 07/M03 A2983 RMK A01 T00691027  RH  050%=      5-min Rain = 0
KPD1 140502Z 27009KT 07/M03 A2984 RMK A01 T00681028  RH  050%=      5-min Rain = 0
KPD1 140503Z 27008KT 07/M03 A2984 RMK A01 T00681028  RH  050%=      5-min Rain = 0
KPD1 140504Z 28009KT 07/M03 A2984 RMK A01 T00681029  RH  050%=      5-min Rain = 0
KPD1 140505Z 28008KT 07/M03 A2984 RMK A01 T00681029  RH  050%=      5-min Rain = 0
KPD1 140506Z 29007KT 07/M03 A2983 RMK A01 T00681029  RH  050%=      5-min Rain = 0
KPD1 140507Z 29008KT 07/M03 A2983 RMK A01 T00671029  RH  050%=      5-min Rain = 0
KPD1 140508Z 29008KT 07/M03 A2983 RMK A01 T00661029  RH  051%=      5-min Rain = 0
KPD1 140509Z 29006KT 07/M03 A2983 RMK A01 T00651029  RH  051%=      5-min Rain = 0
KPD1 140510Z 29007KT 07/M03 A2983 RMK A01 T00651029  RH  051%=      5-min Rain = 0
KPD1 140511Z 29007KT 06/M03 A2983 RMK A01 T00641029  RH  051%=      5-min Rain = 0
KPD1 140512Z 29006KT 06/M03 A2983 RMK A01 T00641030  RH  051%=      5-min Rain = 0
KPD1 140513Z 29005KT 06/M03 A2983 RMK A01 T00631029  RH  052%=      5-min Rain = 0
KPD1 140514Z 29006KT 06/M03 A2983 RMK A01 T00621029  RH  052%=      5-min Rain = 0
KPD1 140515Z 28006KT 06/M03 A2983 RMK A01 T00621029  RH  052%=      5-min Rain = 0
KPD1 140516Z 29007KT 06/M03 A2983 RMK A01 T00621028  RH  053%=      5-min Rain = 0
KPD1 140517Z 29008KT 06/M03 A2983 RMK A01 T00611027  RH  053%=      5-min Rain = 0
KPD1 140518Z 29009KT 06/M03 A2983 RMK A01 T00611027  RH  053%=      5-min Rain = 0
KPD1 140519Z 29008KT 06/M03 A2983 RMK A01 T00611026  RH  054%=      5-min Rain = 0
KPD1 140520Z 29009KT 06/M03 A2983 RMK A01 T00601025  RH  054%=      5-min Rain = 0
KPD1 140521Z 29009KT 06/M03 A2983 RMK A01 T00611025  RH  054%=      5-min Rain = 0
KPD1 140522Z 29010KT 06/M02 A2983 RMK A01 T00611024  RH  054%=      5-min Rain = 0
KPD1 140523Z 28009KT 06/M02 A2983 RMK A01 T00611024  RH  055%=      5-min Rain = 0
KPD1 140524Z 28009KT 06/M02 A2983 RMK A01 T00611023  RH  055%=      5-min Rain = 0
KPD1 140525Z 28009KT 06/M02 A2983 RMK A01 T00611023  RH  055%=      5-min Rain = 0
KPD1 140526Z 28008KT 06/M02 A2982 RMK A01 T00611023  RH  055%=      5-min Rain = 0
KPD1 140527Z 28009KT 06/M02 A2982 RMK A01 T00611023  RH  055%=      5-min Rain = 0
KPD1 140528Z 28009KT 06/M02 A2982 RMK A01 T00621022  RH  055%=      5-min Rain = 0
KPD1 140529Z 28007KT 06/M02 A2982 RMK A01 T00621023  RH  055%=      5-min Rain = 0
KPD1 140530Z 28006KT 06/M02 A2982 RMK A01 T00631023  RH  054%=      5-min Rain = 0
KPD1 140531Z 26005KT 06/M02 A2982 RMK A01 T00631022  RH  054%=      5-min Rain = 0
KPD1 140532Z 24004KT 06/M02 A2982 RMK A01 T00631023  RH  054%=      5-min Rain = 0
KPD1 140533Z 19002KT 06/M02 A2982 RMK A01 T00631023  RH  054%=      5-min Rain = 0
KPD1 140534Z 22002KT 06/M02 A2982 RMK A01 T00631023  RH  054%=      5-min Rain = 0
KPD1 140535Z 27004KT 06/M02 A2983 RMK A01 T00631023  RH  054%=      5-min Rain = 0
KPD1 140536Z 30006KT 06/M02 A2984 RMK A01 T00621022  RH  055%=      5-min Rain = 0
KPD1 140537Z 30011KT 06/M02 A2984 RMK A01 T00611022  RH  055%=      5-min Rain = 0
KPD1 140538Z 30012KT 06/M02 A2984 RMK A01 T00601021  RH  056%=      5-min Rain = 0
KPD1 140539Z 29011KT 06/M02 A2984 RMK A01 T00601021  RH  056%=      5-min Rain = 0
KPD1 140540Z 29013KT 06/M02 A2984 RMK A01 T00601020  RH  056%=      5-min Rain = 0
KPD1 140541Z 29014KT 06/M02 A2984 RMK A01 T00611020  RH  056%=      5-min Rain = 0
KPD1 140542Z 29013KT 06/M02 A2985 RMK A01 T00621019  RH  056%=      5-min Rain = 0
KPD1 140543Z 29013G18KT 06/M02 A2985 RMK A01 T00631018  RH  056%=      5-min Rain = 0
KPD1 140544Z 29013KT 06/M02 A2985 RMK A01 T00631018  RH  056%=      5-min Rain = 0
KPD1 140545Z 29012KT 06/M02 A2984 RMK A01 T00631018  RH  056%=      5-min Rain = 0
KPD1 140546Z 28015KT 06/M02 A2984 RMK A01 T00631018  RH  056%=      5-min Rain = 0
KPD1 140547Z 28012G18KT 06/M02 A2984 RMK A01 T00631018  RH  056%=      5-min Rain = 0
KPD1 140548Z 27012G17KT 06/M02 A2983 RMK A01 T00631019  RH  056%=      5-min Rain = 0
KPD1 140549Z 27011KT 06/M02 A2983 RMK A01 T00631019  RH  056%=      5-min Rain = 0
KPD1 140550Z 27010KT 06/M02 A2982 RMK A01 T00641018  RH  055%=      5-min Rain = 0
KPD1 140551Z 26010KT 07/M02 A2982 RMK A01 T00651019  RH  055%=      5-min Rain = 0
KPD1 140552Z 26009KT 07/M02 A2981 RMK A01 T00661019  RH  054%=      5-min Rain = 0
KPD1 140553Z 25008KT 07/M02 A2981 RMK A01 T00671019  RH  054%=      5-min Rain = 0
KPD1 140554Z 25008KT 07/M02 A2981 RMK A01 T00681020  RH  053%=      5-min Rain = 0
KPD1 140555Z 24006KT 07/M02 A298 RMK A01 T00701020  RH  053%=      5-min Rain = 0
KPD1 140556Z 18005KT 07/M02 A298 RMK A01 T00701020  RH  053%=      5-min Rain = 0
KPD1 140557Z 15005KT 07/M02 A2981 RMK A01 T00701020  RH  053%=      5-min Rain = 0
KPD1 140558Z 15004KT 07/M02 A2981 RMK A01 T00681022  RH  053%=      5-min Rain = 0
KPD1 140559Z 16004KT 07/M02 A2981 RMK A01 T00661023  RH  053%=      5-min Rain = 0

Page generated in 0.3101 seconds.